<?xml version="1.0" encoding="UTF-8" standalone="no" ?>
<gpx xmlns="http://www.topografix.com/GPX/1/1" xmlns:xsi="http://www.w3.org/2001/XMLSchema-instance" xsi:schemaLocation="http://www.topografix.com/GPX/1/1 http://www.topografix.com/GPX/1/1/gpx.xsd" version="1.1" creator="VisuGPX - https://www.visugpx.com">
  <metadata>
    <name>Tour de Vallée PM</name>
    <desc><![CDATA[Autour d\'Argeles Gazost (65)]]></desc>
  </metadata>
  <trk>
    <name><![CDATA[TR VALLEE         PM]]></name>
    <trkseg>
      <trkpt lat="42.95874" lon="-0.0634">
        <ele>460.13</ele>
        <time>2013-08-07T14:26:20Z</time>
      </trkpt>
      <trkpt lat="42.95876" lon="-0.06336">
        <ele>457.24</ele>
        <time>2013-08-07T14:26:35Z</time>
      </trkpt>
      <trkpt lat="42.95871" lon="-0.06333">
        <ele>455.8</ele>
        <time>2013-08-07T14:26:48Z</time>
      </trkpt>
      <trkpt lat="42.95871" lon="-0.06333">
        <ele>458.21</ele>
        <time>2013-08-07T14:26:49Z</time>
      </trkpt>
      <trkpt lat="42.95875" lon="-0.06334">
        <ele>451</ele>
        <time>2013-08-07T14:26:57Z</time>
      </trkpt>
      <trkpt lat="42.95875" lon="-0.06334">
        <ele>458.21</ele>
        <time>2013-08-07T14:26:58Z</time>
      </trkpt>
      <trkpt lat="42.95876" lon="-0.06335">
        <ele>452.92</ele>
        <time>2013-08-07T14:26:59Z</time>
      </trkpt>
      <trkpt lat="42.95876" lon="-0.06335">
        <ele>457.24</ele>
        <time>2013-08-07T14:27:00Z</time>
      </trkpt>
      <trkpt lat="42.95877" lon="-0.06334">
        <ele>458.21</ele>
        <time>2013-08-07T14:27:06Z</time>
      </trkpt>
      <trkpt lat="42.95878" lon="-0.06335">
        <ele>458.21</ele>
        <time>2013-08-07T14:27:13Z</time>
      </trkpt>
      <trkpt lat="42.95878" lon="-0.06348">
        <ele>458.21</ele>
        <time>2013-08-07T14:27:18Z</time>
      </trkpt>
      <trkpt lat="42.95848" lon="-0.06371">
        <ele>459.65</ele>
        <time>2013-08-07T14:27:28Z</time>
      </trkpt>
      <trkpt lat="42.95809" lon="-0.06402">
        <ele>460.13</ele>
        <time>2013-08-07T14:27:40Z</time>
      </trkpt>
      <trkpt lat="42.95773" lon="-0.06432">
        <ele>462.05</ele>
        <time>2013-08-07T14:27:51Z</time>
      </trkpt>
      <trkpt lat="42.95718" lon="-0.06437">
        <ele>464.45</ele>
        <time>2013-08-07T14:28:05Z</time>
      </trkpt>
      <trkpt lat="42.95662" lon="-0.06439">
        <ele>465.9</ele>
        <time>2013-08-07T14:28:20Z</time>
      </trkpt>
      <trkpt lat="42.95627" lon="-0.06431">
        <ele>468.78</ele>
        <time>2013-08-07T14:28:31Z</time>
      </trkpt>
      <trkpt lat="42.95591" lon="-0.06407">
        <ele>472.14</ele>
        <time>2013-08-07T14:28:44Z</time>
      </trkpt>
      <trkpt lat="42.95549" lon="-0.0638">
        <ele>475.51</ele>
        <time>2013-08-07T14:28:59Z</time>
      </trkpt>
      <trkpt lat="42.95543" lon="-0.06378">
        <ele>476.47</ele>
        <time>2013-08-07T14:29:01Z</time>
      </trkpt>
      <trkpt lat="42.95506" lon="-0.06373">
        <ele>478.87</ele>
        <time>2013-08-07T14:29:13Z</time>
      </trkpt>
      <trkpt lat="42.95455" lon="-0.06371">
        <ele>482.24</ele>
        <time>2013-08-07T14:29:30Z</time>
      </trkpt>
      <trkpt lat="42.9544" lon="-0.06371">
        <ele>483.2</ele>
        <time>2013-08-07T14:29:35Z</time>
      </trkpt>
      <trkpt lat="42.95429" lon="-0.06365">
        <ele>483.68</ele>
        <time>2013-08-07T14:29:39Z</time>
      </trkpt>
      <trkpt lat="42.95379" lon="-0.06366">
        <ele>485.6</ele>
        <time>2013-08-07T14:29:53Z</time>
      </trkpt>
      <trkpt lat="42.95344" lon="-0.06379">
        <ele>485.12</ele>
        <time>2013-08-07T14:30:00Z</time>
      </trkpt>
      <trkpt lat="42.95309" lon="-0.06438">
        <ele>482.72</ele>
        <time>2013-08-07T14:30:09Z</time>
      </trkpt>
      <trkpt lat="42.95319" lon="-0.0649">
        <ele>478.87</ele>
        <time>2013-08-07T14:30:13Z</time>
      </trkpt>
      <trkpt lat="42.95327" lon="-0.06517">
        <ele>477.91</ele>
        <time>2013-08-07T14:30:15Z</time>
      </trkpt>
      <trkpt lat="42.95299" lon="-0.0658">
        <ele>475.99</ele>
        <time>2013-08-07T14:30:21Z</time>
      </trkpt>
      <trkpt lat="42.95283" lon="-0.06591">
        <ele>475.03</ele>
        <time>2013-08-07T14:30:23Z</time>
      </trkpt>
      <trkpt lat="42.95274" lon="-0.06596">
        <ele>473.59</ele>
        <time>2013-08-07T14:30:24Z</time>
      </trkpt>
      <trkpt lat="42.95195" lon="-0.0663">
        <ele>471.18</ele>
        <time>2013-08-07T14:30:33Z</time>
      </trkpt>
      <trkpt lat="42.95173" lon="-0.06647">
        <ele>470.7</ele>
        <time>2013-08-07T14:30:38Z</time>
      </trkpt>
      <trkpt lat="42.9516" lon="-0.06666">
        <ele>471.18</ele>
        <time>2013-08-07T14:30:42Z</time>
      </trkpt>
      <trkpt lat="42.95115" lon="-0.06726">
        <ele>474.07</ele>
        <time>2013-08-07T14:30:54Z</time>
      </trkpt>
      <trkpt lat="42.95107" lon="-0.06747">
        <ele>474.55</ele>
        <time>2013-08-07T14:30:58Z</time>
      </trkpt>
      <trkpt lat="42.95101" lon="-0.06808">
        <ele>475.03</ele>
        <time>2013-08-07T14:31:07Z</time>
      </trkpt>
      <trkpt lat="42.95104" lon="-0.06814">
        <ele>475.03</ele>
        <time>2013-08-07T14:31:08Z</time>
      </trkpt>
      <trkpt lat="42.95126" lon="-0.06854">
        <ele>475.03</ele>
        <time>2013-08-07T14:31:15Z</time>
      </trkpt>
      <trkpt lat="42.95163" lon="-0.06948">
        <ele>476.47</ele>
        <time>2013-08-07T14:31:30Z</time>
      </trkpt>
      <trkpt lat="42.95176" lon="-0.06964">
        <ele>477.43</ele>
        <time>2013-08-07T14:31:33Z</time>
      </trkpt>
      <trkpt lat="42.95217" lon="-0.06984">
        <ele>475.99</ele>
        <time>2013-08-07T14:31:40Z</time>
      </trkpt>
      <trkpt lat="42.95223" lon="-0.06985">
        <ele>475.51</ele>
        <time>2013-08-07T14:31:41Z</time>
      </trkpt>
      <trkpt lat="42.95229" lon="-0.06984">
        <ele>475.51</ele>
        <time>2013-08-07T14:31:42Z</time>
      </trkpt>
      <trkpt lat="42.95276" lon="-0.06999">
        <ele>475.03</ele>
        <time>2013-08-07T14:31:49Z</time>
      </trkpt>
      <trkpt lat="42.95352" lon="-0.07045">
        <ele>473.11</ele>
        <time>2013-08-07T14:32:00Z</time>
      </trkpt>
      <trkpt lat="42.95429" lon="-0.07091">
        <ele>475.99</ele>
        <time>2013-08-07T14:32:14Z</time>
      </trkpt>
      <trkpt lat="42.95494" lon="-0.0715">
        <ele>476.47</ele>
        <time>2013-08-07T14:32:29Z</time>
      </trkpt>
      <trkpt lat="42.95524" lon="-0.07195">
        <ele>476.95</ele>
        <time>2013-08-07T14:32:41Z</time>
      </trkpt>
      <trkpt lat="42.95554" lon="-0.07236">
        <ele>477.91</ele>
        <time>2013-08-07T14:32:55Z</time>
      </trkpt>
      <trkpt lat="42.95556" lon="-0.0724">
        <ele>478.39</ele>
        <time>2013-08-07T14:32:56Z</time>
      </trkpt>
      <trkpt lat="42.95599" lon="-0.07306">
        <ele>479.84</ele>
        <time>2013-08-07T14:33:12Z</time>
      </trkpt>
      <trkpt lat="42.95644" lon="-0.07376">
        <ele>482.24</ele>
        <time>2013-08-07T14:33:29Z</time>
      </trkpt>
      <trkpt lat="42.95671" lon="-0.07435">
        <ele>486.08</ele>
        <time>2013-08-07T14:33:42Z</time>
      </trkpt>
      <trkpt lat="42.95686" lon="-0.07489">
        <ele>488.01</ele>
        <time>2013-08-07T14:33:53Z</time>
      </trkpt>
      <trkpt lat="42.95694" lon="-0.075">
        <ele>488.49</ele>
        <time>2013-08-07T14:33:56Z</time>
      </trkpt>
      <trkpt lat="42.957" lon="-0.07503">
        <ele>488.49</ele>
        <time>2013-08-07T14:33:57Z</time>
      </trkpt>
      <trkpt lat="42.95712" lon="-0.07507">
        <ele>488.49</ele>
        <time>2013-08-07T14:34:00Z</time>
      </trkpt>
      <trkpt lat="42.95725" lon="-0.07509">
        <ele>488.97</ele>
        <time>2013-08-07T14:34:03Z</time>
      </trkpt>
      <trkpt lat="42.95794" lon="-0.07489">
        <ele>486.56</ele>
        <time>2013-08-07T14:34:14Z</time>
      </trkpt>
      <trkpt lat="42.95816" lon="-0.07484">
        <ele>486.56</ele>
        <time>2013-08-07T14:34:17Z</time>
      </trkpt>
      <trkpt lat="42.95853" lon="-0.07463">
        <ele>483.68</ele>
        <time>2013-08-07T14:34:22Z</time>
      </trkpt>
      <trkpt lat="42.95859" lon="-0.07461">
        <ele>484.16</ele>
        <time>2013-08-07T14:34:23Z</time>
      </trkpt>
      <trkpt lat="42.95865" lon="-0.07457">
        <ele>482.24</ele>
        <time>2013-08-07T14:34:24Z</time>
      </trkpt>
      <trkpt lat="42.95881" lon="-0.07455">
        <ele>480.8</ele>
        <time>2013-08-07T14:34:30Z</time>
      </trkpt>
      <trkpt lat="42.9587" lon="-0.07476">
        <ele>481.76</ele>
        <time>2013-08-07T14:34:37Z</time>
      </trkpt>
      <trkpt lat="42.95871" lon="-0.07481">
        <ele>482.24</ele>
        <time>2013-08-07T14:34:38Z</time>
      </trkpt>
      <trkpt lat="42.95879" lon="-0.0751">
        <ele>482.24</ele>
        <time>2013-08-07T14:34:43Z</time>
      </trkpt>
      <trkpt lat="42.95883" lon="-0.07522">
        <ele>482.24</ele>
        <time>2013-08-07T14:34:45Z</time>
      </trkpt>
      <trkpt lat="42.95889" lon="-0.07541">
        <ele>482.72</ele>
        <time>2013-08-07T14:34:48Z</time>
      </trkpt>
      <trkpt lat="42.95922" lon="-0.07644">
        <ele>481.76</ele>
        <time>2013-08-07T14:35:04Z</time>
      </trkpt>
      <trkpt lat="42.95933" lon="-0.07681">
        <ele>482.24</ele>
        <time>2013-08-07T14:35:10Z</time>
      </trkpt>
      <trkpt lat="42.95965" lon="-0.07721">
        <ele>486.08</ele>
        <time>2013-08-07T14:35:23Z</time>
      </trkpt>
      <trkpt lat="42.9599" lon="-0.07735">
        <ele>488.97</ele>
        <time>2013-08-07T14:35:34Z</time>
      </trkpt>
      <trkpt lat="42.96025" lon="-0.07748">
        <ele>491.85</ele>
        <time>2013-08-07T14:35:44Z</time>
      </trkpt>
      <trkpt lat="42.96055" lon="-0.07768">
        <ele>494.26</ele>
        <time>2013-08-07T14:35:56Z</time>
      </trkpt>
      <trkpt lat="42.96059" lon="-0.0777">
        <ele>494.74</ele>
        <time>2013-08-07T14:35:58Z</time>
      </trkpt>
      <trkpt lat="42.96087" lon="-0.07791">
        <ele>496.66</ele>
        <time>2013-08-07T14:36:09Z</time>
      </trkpt>
      <trkpt lat="42.96115" lon="-0.07807">
        <ele>500.02</ele>
        <time>2013-08-07T14:36:21Z</time>
      </trkpt>
      <trkpt lat="42.96147" lon="-0.07808">
        <ele>501.95</ele>
        <time>2013-08-07T14:36:32Z</time>
      </trkpt>
      <trkpt lat="42.9618" lon="-0.07816">
        <ele>505.31</ele>
        <time>2013-08-07T14:36:44Z</time>
      </trkpt>
      <trkpt lat="42.96186" lon="-0.07817">
        <ele>506.27</ele>
        <time>2013-08-07T14:36:46Z</time>
      </trkpt>
      <trkpt lat="42.96235" lon="-0.07818">
        <ele>508.19</ele>
        <time>2013-08-07T14:37:02Z</time>
      </trkpt>
      <trkpt lat="42.96275" lon="-0.07817">
        <ele>511.08</ele>
        <time>2013-08-07T14:37:17Z</time>
      </trkpt>
      <trkpt lat="42.96299" lon="-0.07834">
        <ele>513</ele>
        <time>2013-08-07T14:37:26Z</time>
      </trkpt>
      <trkpt lat="42.96311" lon="-0.07867">
        <ele>514.92</ele>
        <time>2013-08-07T14:37:36Z</time>
      </trkpt>
      <trkpt lat="42.96307" lon="-0.07885">
        <ele>516.85</ele>
        <time>2013-08-07T14:37:43Z</time>
      </trkpt>
      <trkpt lat="42.96313" lon="-0.07899">
        <ele>519.25</ele>
        <time>2013-08-07T14:37:49Z</time>
      </trkpt>
      <trkpt lat="42.96331" lon="-0.07915">
        <ele>522.13</ele>
        <time>2013-08-07T14:38:01Z</time>
      </trkpt>
      <trkpt lat="42.96356" lon="-0.07915">
        <ele>525.5</ele>
        <time>2013-08-07T14:38:14Z</time>
      </trkpt>
      <trkpt lat="42.96368" lon="-0.07915">
        <ele>526.94</ele>
        <time>2013-08-07T14:38:21Z</time>
      </trkpt>
      <trkpt lat="42.96395" lon="-0.07901">
        <ele>529.82</ele>
        <time>2013-08-07T14:38:35Z</time>
      </trkpt>
      <trkpt lat="42.96417" lon="-0.0789">
        <ele>530.79</ele>
        <time>2013-08-07T14:38:45Z</time>
      </trkpt>
      <trkpt lat="42.96431" lon="-0.0788">
        <ele>532.23</ele>
        <time>2013-08-07T14:38:52Z</time>
      </trkpt>
      <trkpt lat="42.9646" lon="-0.07883">
        <ele>535.11</ele>
        <time>2013-08-07T14:39:04Z</time>
      </trkpt>
      <trkpt lat="42.96483" lon="-0.07872">
        <ele>536.07</ele>
        <time>2013-08-07T14:39:15Z</time>
      </trkpt>
      <trkpt lat="42.96501" lon="-0.07869">
        <ele>538.48</ele>
        <time>2013-08-07T14:39:25Z</time>
      </trkpt>
      <trkpt lat="42.96507" lon="-0.07871">
        <ele>538.96</ele>
        <time>2013-08-07T14:39:29Z</time>
      </trkpt>
      <trkpt lat="42.96531" lon="-0.07871">
        <ele>543.28</ele>
        <time>2013-08-07T14:39:43Z</time>
      </trkpt>
      <trkpt lat="42.96553" lon="-0.07873">
        <ele>545.2</ele>
        <time>2013-08-07T14:39:55Z</time>
      </trkpt>
      <trkpt lat="42.96576" lon="-0.07873">
        <ele>547.13</ele>
        <time>2013-08-07T14:40:07Z</time>
      </trkpt>
      <trkpt lat="42.966" lon="-0.07875">
        <ele>548.57</ele>
        <time>2013-08-07T14:40:18Z</time>
      </trkpt>
      <trkpt lat="42.96625" lon="-0.07871">
        <ele>550.01</ele>
        <time>2013-08-07T14:40:29Z</time>
      </trkpt>
      <trkpt lat="42.96648" lon="-0.07869">
        <ele>552.9</ele>
        <time>2013-08-07T14:40:43Z</time>
      </trkpt>
      <trkpt lat="42.96655" lon="-0.07873">
        <ele>555.78</ele>
        <time>2013-08-07T14:40:55Z</time>
      </trkpt>
      <trkpt lat="42.96664" lon="-0.0788">
        <ele>557.22</ele>
        <time>2013-08-07T14:41:03Z</time>
      </trkpt>
      <trkpt lat="42.96674" lon="-0.07883">
        <ele>557.7</ele>
        <time>2013-08-07T14:41:06Z</time>
      </trkpt>
      <trkpt lat="42.96711" lon="-0.07868">
        <ele>559.14</ele>
        <time>2013-08-07T14:41:21Z</time>
      </trkpt>
      <trkpt lat="42.96733" lon="-0.07834">
        <ele>560.11</ele>
        <time>2013-08-07T14:41:36Z</time>
      </trkpt>
      <trkpt lat="42.96744" lon="-0.07829">
        <ele>562.03</ele>
        <time>2013-08-07T14:41:44Z</time>
      </trkpt>
      <trkpt lat="42.96745" lon="-0.07832">
        <ele>561.55</ele>
        <time>2013-08-07T14:41:46Z</time>
      </trkpt>
      <trkpt lat="42.96744" lon="-0.07837">
        <ele>562.99</ele>
        <time>2013-08-07T14:41:49Z</time>
      </trkpt>
      <trkpt lat="42.96743" lon="-0.07843">
        <ele>563.95</ele>
        <time>2013-08-07T14:41:52Z</time>
      </trkpt>
      <trkpt lat="42.96747" lon="-0.07847">
        <ele>565.39</ele>
        <time>2013-08-07T14:41:56Z</time>
      </trkpt>
      <trkpt lat="42.9675" lon="-0.07851">
        <ele>566.35</ele>
        <time>2013-08-07T14:42:00Z</time>
      </trkpt>
      <trkpt lat="42.96751" lon="-0.07857">
        <ele>567.8</ele>
        <time>2013-08-07T14:42:04Z</time>
      </trkpt>
      <trkpt lat="42.96761" lon="-0.07877">
        <ele>570.68</ele>
        <time>2013-08-07T14:42:19Z</time>
      </trkpt>
      <trkpt lat="42.9677" lon="-0.07884">
        <ele>573.08</ele>
        <time>2013-08-07T14:42:28Z</time>
      </trkpt>
      <trkpt lat="42.96775" lon="-0.07891">
        <ele>574.53</ele>
        <time>2013-08-07T14:42:34Z</time>
      </trkpt>
      <trkpt lat="42.96783" lon="-0.07897">
        <ele>575.97</ele>
        <time>2013-08-07T14:42:42Z</time>
      </trkpt>
      <trkpt lat="42.96786" lon="-0.07903">
        <ele>576.93</ele>
        <time>2013-08-07T14:42:46Z</time>
      </trkpt>
      <trkpt lat="42.96793" lon="-0.07904">
        <ele>577.89</ele>
        <time>2013-08-07T14:42:52Z</time>
      </trkpt>
      <trkpt lat="42.96811" lon="-0.07915">
        <ele>581.25</ele>
        <time>2013-08-07T14:43:07Z</time>
      </trkpt>
      <trkpt lat="42.96827" lon="-0.0792">
        <ele>581.73</ele>
        <time>2013-08-07T14:43:21Z</time>
      </trkpt>
      <trkpt lat="42.96831" lon="-0.07916">
        <ele>581.73</ele>
        <time>2013-08-07T14:43:26Z</time>
      </trkpt>
      <trkpt lat="42.96832" lon="-0.07915">
        <ele>580.77</ele>
        <time>2013-08-07T14:43:31Z</time>
      </trkpt>
      <trkpt lat="42.96833" lon="-0.07915">
        <ele>582.22</ele>
        <time>2013-08-07T14:43:41Z</time>
      </trkpt>
      <trkpt lat="42.96833" lon="-0.07914">
        <ele>582.22</ele>
        <time>2013-08-07T14:43:57Z</time>
      </trkpt>
      <trkpt lat="42.96834" lon="-0.07914">
        <ele>581.73</ele>
        <time>2013-08-07T14:44:12Z</time>
      </trkpt>
      <trkpt lat="42.96834" lon="-0.07914">
        <ele>581.73</ele>
        <time>2013-08-07T14:44:24Z</time>
      </trkpt>
      <trkpt lat="42.96836" lon="-0.07917">
        <ele>582.22</ele>
        <time>2013-08-07T14:44:30Z</time>
      </trkpt>
      <trkpt lat="42.96838" lon="-0.07923">
        <ele>582.22</ele>
        <time>2013-08-07T14:44:34Z</time>
      </trkpt>
      <trkpt lat="42.9685" lon="-0.07958">
        <ele>583.18</ele>
        <time>2013-08-07T14:44:48Z</time>
      </trkpt>
      <trkpt lat="42.96867" lon="-0.07992">
        <ele>585.58</ele>
        <time>2013-08-07T14:45:02Z</time>
      </trkpt>
      <trkpt lat="42.96893" lon="-0.08037">
        <ele>586.06</ele>
        <time>2013-08-07T14:45:20Z</time>
      </trkpt>
      <trkpt lat="42.9692" lon="-0.08062">
        <ele>583.18</ele>
        <time>2013-08-07T14:45:30Z</time>
      </trkpt>
      <trkpt lat="42.96928" lon="-0.08065">
        <ele>582.22</ele>
        <time>2013-08-07T14:45:32Z</time>
      </trkpt>
      <trkpt lat="42.96941" lon="-0.08069">
        <ele>580.29</ele>
        <time>2013-08-07T14:45:35Z</time>
      </trkpt>
      <trkpt lat="42.96957" lon="-0.08075">
        <ele>579.33</ele>
        <time>2013-08-07T14:45:38Z</time>
      </trkpt>
      <trkpt lat="42.96968" lon="-0.08096">
        <ele>577.41</ele>
        <time>2013-08-07T14:45:44Z</time>
      </trkpt>
      <trkpt lat="42.96985" lon="-0.08119">
        <ele>576.45</ele>
        <time>2013-08-07T14:45:55Z</time>
      </trkpt>
      <trkpt lat="42.97007" lon="-0.08154">
        <ele>577.89</ele>
        <time>2013-08-07T14:46:07Z</time>
      </trkpt>
      <trkpt lat="42.97016" lon="-0.08171">
        <ele>575.97</ele>
        <time>2013-08-07T14:46:11Z</time>
      </trkpt>
      <trkpt lat="42.97022" lon="-0.08181">
        <ele>575.01</ele>
        <time>2013-08-07T14:46:13Z</time>
      </trkpt>
      <trkpt lat="42.97025" lon="-0.08185">
        <ele>574.53</ele>
        <time>2013-08-07T14:46:14Z</time>
      </trkpt>
      <trkpt lat="42.97027" lon="-0.08189">
        <ele>574.04</ele>
        <time>2013-08-07T14:46:15Z</time>
      </trkpt>
      <trkpt lat="42.97029" lon="-0.08193">
        <ele>574.04</ele>
        <time>2013-08-07T14:46:16Z</time>
      </trkpt>
      <trkpt lat="42.9703" lon="-0.08196">
        <ele>574.04</ele>
        <time>2013-08-07T14:46:17Z</time>
      </trkpt>
      <trkpt lat="42.97039" lon="-0.08212">
        <ele>574.53</ele>
        <time>2013-08-07T14:46:23Z</time>
      </trkpt>
      <trkpt lat="42.97041" lon="-0.08213">
        <ele>574.53</ele>
        <time>2013-08-07T14:46:24Z</time>
      </trkpt>
      <trkpt lat="42.97042" lon="-0.08215">
        <ele>575.01</ele>
        <time>2013-08-07T14:46:25Z</time>
      </trkpt>
      <trkpt lat="42.97044" lon="-0.08219">
        <ele>575.49</ele>
        <time>2013-08-07T14:46:27Z</time>
      </trkpt>
      <trkpt lat="42.97045" lon="-0.08222">
        <ele>575.49</ele>
        <time>2013-08-07T14:46:29Z</time>
      </trkpt>
      <trkpt lat="42.97046" lon="-0.08223">
        <ele>575.97</ele>
        <time>2013-08-07T14:46:30Z</time>
      </trkpt>
      <trkpt lat="42.97048" lon="-0.08224">
        <ele>576.93</ele>
        <time>2013-08-07T14:46:31Z</time>
      </trkpt>
      <trkpt lat="42.97049" lon="-0.08226">
        <ele>576.93</ele>
        <time>2013-08-07T14:46:32Z</time>
      </trkpt>
      <trkpt lat="42.9705" lon="-0.08228">
        <ele>576.93</ele>
        <time>2013-08-07T14:46:33Z</time>
      </trkpt>
      <trkpt lat="42.97051" lon="-0.08231">
        <ele>576.93</ele>
        <time>2013-08-07T14:46:34Z</time>
      </trkpt>
      <trkpt lat="42.97052" lon="-0.08234">
        <ele>577.41</ele>
        <time>2013-08-07T14:46:35Z</time>
      </trkpt>
      <trkpt lat="42.97054" lon="-0.08236">
        <ele>577.41</ele>
        <time>2013-08-07T14:46:36Z</time>
      </trkpt>
      <trkpt lat="42.97055" lon="-0.08238">
        <ele>578.37</ele>
        <time>2013-08-07T14:46:37Z</time>
      </trkpt>
      <trkpt lat="42.97057" lon="-0.08241">
        <ele>578.37</ele>
        <time>2013-08-07T14:46:38Z</time>
      </trkpt>
      <trkpt lat="42.97058" lon="-0.08243">
        <ele>578.37</ele>
        <time>2013-08-07T14:46:39Z</time>
      </trkpt>
      <trkpt lat="42.97064" lon="-0.08253">
        <ele>579.81</ele>
        <time>2013-08-07T14:46:43Z</time>
      </trkpt>
      <trkpt lat="42.97069" lon="-0.08268">
        <ele>581.73</ele>
        <time>2013-08-07T14:46:49Z</time>
      </trkpt>
      <trkpt lat="42.97072" lon="-0.08275">
        <ele>582.7</ele>
        <time>2013-08-07T14:46:53Z</time>
      </trkpt>
      <trkpt lat="42.97075" lon="-0.08291">
        <ele>586.06</ele>
        <time>2013-08-07T14:47:05Z</time>
      </trkpt>
      <trkpt lat="42.97077" lon="-0.08301">
        <ele>587.98</ele>
        <time>2013-08-07T14:47:12Z</time>
      </trkpt>
      <trkpt lat="42.97077" lon="-0.08306">
        <ele>588.95</ele>
        <time>2013-08-07T14:47:17Z</time>
      </trkpt>
      <trkpt lat="42.97073" lon="-0.08311">
        <ele>590.39</ele>
        <time>2013-08-07T14:47:24Z</time>
      </trkpt>
      <trkpt lat="42.9707" lon="-0.0831">
        <ele>591.35</ele>
        <time>2013-08-07T14:47:26Z</time>
      </trkpt>
      <trkpt lat="42.97069" lon="-0.08309">
        <ele>591.35</ele>
        <time>2013-08-07T14:47:27Z</time>
      </trkpt>
      <trkpt lat="42.97052" lon="-0.08285">
        <ele>589.43</ele>
        <time>2013-08-07T14:47:37Z</time>
      </trkpt>
      <trkpt lat="42.97043" lon="-0.08265">
        <ele>589.91</ele>
        <time>2013-08-07T14:47:43Z</time>
      </trkpt>
      <trkpt lat="42.97043" lon="-0.08262">
        <ele>589.91</ele>
        <time>2013-08-07T14:47:44Z</time>
      </trkpt>
      <trkpt lat="42.97042" lon="-0.0826">
        <ele>589.91</ele>
        <time>2013-08-07T14:47:45Z</time>
      </trkpt>
      <trkpt lat="42.97042" lon="-0.08258">
        <ele>589.91</ele>
        <time>2013-08-07T14:47:46Z</time>
      </trkpt>
      <trkpt lat="42.97041" lon="-0.08257">
        <ele>589.91</ele>
        <time>2013-08-07T14:47:47Z</time>
      </trkpt>
      <trkpt lat="42.9704" lon="-0.08255">
        <ele>590.39</ele>
        <time>2013-08-07T14:47:48Z</time>
      </trkpt>
      <trkpt lat="42.97038" lon="-0.08253">
        <ele>589.91</ele>
        <time>2013-08-07T14:47:49Z</time>
      </trkpt>
      <trkpt lat="42.97026" lon="-0.08229">
        <ele>589.43</ele>
        <time>2013-08-07T14:47:57Z</time>
      </trkpt>
      <trkpt lat="42.97023" lon="-0.08227">
        <ele>589.43</ele>
        <time>2013-08-07T14:47:58Z</time>
      </trkpt>
      <trkpt lat="42.97016" lon="-0.08223">
        <ele>590.87</ele>
        <time>2013-08-07T14:48:02Z</time>
      </trkpt>
      <trkpt lat="42.97012" lon="-0.0822">
        <ele>592.79</ele>
        <time>2013-08-07T14:48:07Z</time>
      </trkpt>
      <trkpt lat="42.97011" lon="-0.0822">
        <ele>592.79</ele>
        <time>2013-08-07T14:48:08Z</time>
      </trkpt>
      <trkpt lat="42.97009" lon="-0.08222">
        <ele>593.75</ele>
        <time>2013-08-07T14:48:11Z</time>
      </trkpt>
      <trkpt lat="42.9701" lon="-0.08225">
        <ele>594.23</ele>
        <time>2013-08-07T14:48:13Z</time>
      </trkpt>
      <trkpt lat="42.97009" lon="-0.08233">
        <ele>596.15</ele>
        <time>2013-08-07T14:48:20Z</time>
      </trkpt>
      <trkpt lat="42.97013" lon="-0.08247">
        <ele>597.6</ele>
        <time>2013-08-07T14:48:26Z</time>
      </trkpt>
      <trkpt lat="42.97013" lon="-0.08261">
        <ele>599.52</ele>
        <time>2013-08-07T14:48:32Z</time>
      </trkpt>
      <trkpt lat="42.97013" lon="-0.08263">
        <ele>600</ele>
        <time>2013-08-07T14:48:33Z</time>
      </trkpt>
      <trkpt lat="42.97013" lon="-0.08265">
        <ele>600.48</ele>
        <time>2013-08-07T14:48:34Z</time>
      </trkpt>
      <trkpt lat="42.97013" lon="-0.08267">
        <ele>600.48</ele>
        <time>2013-08-07T14:48:35Z</time>
      </trkpt>
      <trkpt lat="42.97013" lon="-0.08269">
        <ele>600.48</ele>
        <time>2013-08-07T14:48:36Z</time>
      </trkpt>
      <trkpt lat="42.97013" lon="-0.08271">
        <ele>601.44</ele>
        <time>2013-08-07T14:48:37Z</time>
      </trkpt>
      <trkpt lat="42.97013" lon="-0.08273">
        <ele>600.96</ele>
        <time>2013-08-07T14:48:38Z</time>
      </trkpt>
      <trkpt lat="42.97014" lon="-0.08275">
        <ele>600.96</ele>
        <time>2013-08-07T14:48:39Z</time>
      </trkpt>
      <trkpt lat="42.97015" lon="-0.08281">
        <ele>602.88</ele>
        <time>2013-08-07T14:48:44Z</time>
      </trkpt>
      <trkpt lat="42.97016" lon="-0.08285">
        <ele>603.85</ele>
        <time>2013-08-07T14:48:48Z</time>
      </trkpt>
      <trkpt lat="42.97024" lon="-0.08309">
        <ele>606.73</ele>
        <time>2013-08-07T14:49:01Z</time>
      </trkpt>
      <trkpt lat="42.97034" lon="-0.08336">
        <ele>609.61</ele>
        <time>2013-08-07T14:49:14Z</time>
      </trkpt>
      <trkpt lat="42.97042" lon="-0.08358">
        <ele>612.98</ele>
        <time>2013-08-07T14:49:27Z</time>
      </trkpt>
      <trkpt lat="42.97049" lon="-0.08368">
        <ele>614.9</ele>
        <time>2013-08-07T14:49:35Z</time>
      </trkpt>
      <trkpt lat="42.9705" lon="-0.0837">
        <ele>614.9</ele>
        <time>2013-08-07T14:49:36Z</time>
      </trkpt>
      <trkpt lat="42.97066" lon="-0.08391">
        <ele>616.34</ele>
        <time>2013-08-07T14:49:50Z</time>
      </trkpt>
      <trkpt lat="42.9707" lon="-0.08409">
        <ele>618.75</ele>
        <time>2013-08-07T14:49:59Z</time>
      </trkpt>
      <trkpt lat="42.97073" lon="-0.08427">
        <ele>621.63</ele>
        <time>2013-08-07T14:50:10Z</time>
      </trkpt>
      <trkpt lat="42.97073" lon="-0.08428">
        <ele>622.59</ele>
        <time>2013-08-07T14:50:11Z</time>
      </trkpt>
      <trkpt lat="42.97073" lon="-0.08439">
        <ele>623.55</ele>
        <time>2013-08-07T14:50:20Z</time>
      </trkpt>
      <trkpt lat="42.97075" lon="-0.08453">
        <ele>623.55</ele>
        <time>2013-08-07T14:50:26Z</time>
      </trkpt>
      <trkpt lat="42.97075" lon="-0.08456">
        <ele>624.03</ele>
        <time>2013-08-07T14:50:27Z</time>
      </trkpt>
      <trkpt lat="42.97075" lon="-0.08458">
        <ele>623.55</ele>
        <time>2013-08-07T14:50:28Z</time>
      </trkpt>
      <trkpt lat="42.97075" lon="-0.08461">
        <ele>623.55</ele>
        <time>2013-08-07T14:50:29Z</time>
      </trkpt>
      <trkpt lat="42.97076" lon="-0.08463">
        <ele>624.03</ele>
        <time>2013-08-07T14:50:30Z</time>
      </trkpt>
      <trkpt lat="42.97077" lon="-0.08466">
        <ele>624.03</ele>
        <time>2013-08-07T14:50:31Z</time>
      </trkpt>
      <trkpt lat="42.97079" lon="-0.08476">
        <ele>623.55</ele>
        <time>2013-08-07T14:50:34Z</time>
      </trkpt>
      <trkpt lat="42.97079" lon="-0.08479">
        <ele>623.07</ele>
        <time>2013-08-07T14:50:35Z</time>
      </trkpt>
      <trkpt lat="42.9708" lon="-0.08482">
        <ele>623.55</ele>
        <time>2013-08-07T14:50:36Z</time>
      </trkpt>
      <trkpt lat="42.97081" lon="-0.08484">
        <ele>623.55</ele>
        <time>2013-08-07T14:50:37Z</time>
      </trkpt>
      <trkpt lat="42.97082" lon="-0.08486">
        <ele>624.03</ele>
        <time>2013-08-07T14:50:38Z</time>
      </trkpt>
      <trkpt lat="42.97083" lon="-0.08488">
        <ele>624.03</ele>
        <time>2013-08-07T14:50:39Z</time>
      </trkpt>
      <trkpt lat="42.97093" lon="-0.08522">
        <ele>627.4</ele>
        <time>2013-08-07T14:50:51Z</time>
      </trkpt>
      <trkpt lat="42.97098" lon="-0.08535">
        <ele>627.4</ele>
        <time>2013-08-07T14:50:56Z</time>
      </trkpt>
      <trkpt lat="42.971" lon="-0.08536">
        <ele>627.88</ele>
        <time>2013-08-07T14:50:57Z</time>
      </trkpt>
      <trkpt lat="42.97102" lon="-0.08541">
        <ele>626.44</ele>
        <time>2013-08-07T14:51:01Z</time>
      </trkpt>
      <trkpt lat="42.97104" lon="-0.08543">
        <ele>626.44</ele>
        <time>2013-08-07T14:51:02Z</time>
      </trkpt>
      <trkpt lat="42.97119" lon="-0.0856">
        <ele>624.03</ele>
        <time>2013-08-07T14:51:09Z</time>
      </trkpt>
      <trkpt lat="42.97155" lon="-0.08582">
        <ele>619.71</ele>
        <time>2013-08-07T14:51:16Z</time>
      </trkpt>
      <trkpt lat="42.97174" lon="-0.08589">
        <ele>616.34</ele>
        <time>2013-08-07T14:51:20Z</time>
      </trkpt>
      <trkpt lat="42.97188" lon="-0.0859">
        <ele>612.02</ele>
        <time>2013-08-07T14:51:24Z</time>
      </trkpt>
      <trkpt lat="42.97197" lon="-0.08589">
        <ele>608.17</ele>
        <time>2013-08-07T14:51:27Z</time>
      </trkpt>
      <trkpt lat="42.97207" lon="-0.08584">
        <ele>604.33</ele>
        <time>2013-08-07T14:51:31Z</time>
      </trkpt>
      <trkpt lat="42.97215" lon="-0.08581">
        <ele>600.96</ele>
        <time>2013-08-07T14:51:34Z</time>
      </trkpt>
      <trkpt lat="42.97222" lon="-0.08578">
        <ele>599.04</ele>
        <time>2013-08-07T14:51:37Z</time>
      </trkpt>
      <trkpt lat="42.97235" lon="-0.08589">
        <ele>594.71</ele>
        <time>2013-08-07T14:51:43Z</time>
      </trkpt>
      <trkpt lat="42.97243" lon="-0.08598">
        <ele>592.79</ele>
        <time>2013-08-07T14:51:45Z</time>
      </trkpt>
      <trkpt lat="42.97261" lon="-0.08607">
        <ele>587.02</ele>
        <time>2013-08-07T14:51:49Z</time>
      </trkpt>
      <trkpt lat="42.97288" lon="-0.08609">
        <ele>584.14</ele>
        <time>2013-08-07T14:51:53Z</time>
      </trkpt>
      <trkpt lat="42.97297" lon="-0.08609">
        <ele>583.66</ele>
        <time>2013-08-07T14:51:54Z</time>
      </trkpt>
      <trkpt lat="42.97305" lon="-0.08605">
        <ele>583.18</ele>
        <time>2013-08-07T14:51:55Z</time>
      </trkpt>
      <trkpt lat="42.97312" lon="-0.08602">
        <ele>582.22</ele>
        <time>2013-08-07T14:51:56Z</time>
      </trkpt>
      <trkpt lat="42.97318" lon="-0.08601">
        <ele>581.73</ele>
        <time>2013-08-07T14:51:57Z</time>
      </trkpt>
      <trkpt lat="42.97325" lon="-0.08601">
        <ele>581.73</ele>
        <time>2013-08-07T14:51:58Z</time>
      </trkpt>
      <trkpt lat="42.97332" lon="-0.08602">
        <ele>581.73</ele>
        <time>2013-08-07T14:51:59Z</time>
      </trkpt>
      <trkpt lat="42.97349" lon="-0.08602">
        <ele>580.29</ele>
        <time>2013-08-07T14:52:01Z</time>
      </trkpt>
      <trkpt lat="42.97356" lon="-0.086">
        <ele>579.81</ele>
        <time>2013-08-07T14:52:02Z</time>
      </trkpt>
      <trkpt lat="42.97366" lon="-0.08589">
        <ele>579.81</ele>
        <time>2013-08-07T14:52:04Z</time>
      </trkpt>
      <trkpt lat="42.97374" lon="-0.08579">
        <ele>579.33</ele>
        <time>2013-08-07T14:52:06Z</time>
      </trkpt>
      <trkpt lat="42.97392" lon="-0.08566">
        <ele>579.81</ele>
        <time>2013-08-07T14:52:11Z</time>
      </trkpt>
      <trkpt lat="42.97396" lon="-0.08566">
        <ele>579.33</ele>
        <time>2013-08-07T14:52:12Z</time>
      </trkpt>
      <trkpt lat="42.97401" lon="-0.08566">
        <ele>579.33</ele>
        <time>2013-08-07T14:52:13Z</time>
      </trkpt>
      <trkpt lat="42.97483" lon="-0.08574">
        <ele>576.93</ele>
        <time>2013-08-07T14:52:26Z</time>
      </trkpt>
      <trkpt lat="42.97496" lon="-0.08579">
        <ele>575.49</ele>
        <time>2013-08-07T14:52:28Z</time>
      </trkpt>
      <trkpt lat="42.97501" lon="-0.08584">
        <ele>575.01</ele>
        <time>2013-08-07T14:52:29Z</time>
      </trkpt>
      <trkpt lat="42.97505" lon="-0.0859">
        <ele>574.04</ele>
        <time>2013-08-07T14:52:30Z</time>
      </trkpt>
      <trkpt lat="42.97536" lon="-0.08637">
        <ele>571.16</ele>
        <time>2013-08-07T14:52:38Z</time>
      </trkpt>
      <trkpt lat="42.97557" lon="-0.08664">
        <ele>569.72</ele>
        <time>2013-08-07T14:52:42Z</time>
      </trkpt>
      <trkpt lat="42.97563" lon="-0.08671">
        <ele>568.76</ele>
        <time>2013-08-07T14:52:43Z</time>
      </trkpt>
      <trkpt lat="42.9757" lon="-0.08676">
        <ele>567.8</ele>
        <time>2013-08-07T14:52:44Z</time>
      </trkpt>
      <trkpt lat="42.97576" lon="-0.08682">
        <ele>567.32</ele>
        <time>2013-08-07T14:52:45Z</time>
      </trkpt>
      <trkpt lat="42.97582" lon="-0.08688">
        <ele>565.87</ele>
        <time>2013-08-07T14:52:46Z</time>
      </trkpt>
      <trkpt lat="42.97588" lon="-0.08695">
        <ele>563.95</ele>
        <time>2013-08-07T14:52:47Z</time>
      </trkpt>
      <trkpt lat="42.976" lon="-0.08707">
        <ele>562.03</ele>
        <time>2013-08-07T14:52:49Z</time>
      </trkpt>
      <trkpt lat="42.97606" lon="-0.08711">
        <ele>560.11</ele>
        <time>2013-08-07T14:52:50Z</time>
      </trkpt>
      <trkpt lat="42.97621" lon="-0.08716">
        <ele>556.26</ele>
        <time>2013-08-07T14:52:53Z</time>
      </trkpt>
      <trkpt lat="42.97627" lon="-0.08721">
        <ele>555.78</ele>
        <time>2013-08-07T14:52:54Z</time>
      </trkpt>
      <trkpt lat="42.97632" lon="-0.08728">
        <ele>555.3</ele>
        <time>2013-08-07T14:52:55Z</time>
      </trkpt>
      <trkpt lat="42.97636" lon="-0.08737">
        <ele>555.3</ele>
        <time>2013-08-07T14:52:56Z</time>
      </trkpt>
      <trkpt lat="42.97639" lon="-0.08746">
        <ele>554.34</ele>
        <time>2013-08-07T14:52:57Z</time>
      </trkpt>
      <trkpt lat="42.97656" lon="-0.08786">
        <ele>551.45</ele>
        <time>2013-08-07T14:53:01Z</time>
      </trkpt>
      <trkpt lat="42.97662" lon="-0.08795">
        <ele>551.45</ele>
        <time>2013-08-07T14:53:02Z</time>
      </trkpt>
      <trkpt lat="42.97683" lon="-0.08823">
        <ele>548.09</ele>
        <time>2013-08-07T14:53:05Z</time>
      </trkpt>
      <trkpt lat="42.97689" lon="-0.08832">
        <ele>548.09</ele>
        <time>2013-08-07T14:53:06Z</time>
      </trkpt>
      <trkpt lat="42.97708" lon="-0.08858">
        <ele>545.2</ele>
        <time>2013-08-07T14:53:09Z</time>
      </trkpt>
      <trkpt lat="42.97732" lon="-0.08887">
        <ele>541.84</ele>
        <time>2013-08-07T14:53:13Z</time>
      </trkpt>
      <trkpt lat="42.97739" lon="-0.08891">
        <ele>541.84</ele>
        <time>2013-08-07T14:53:14Z</time>
      </trkpt>
      <trkpt lat="42.97755" lon="-0.08898">
        <ele>538.96</ele>
        <time>2013-08-07T14:53:17Z</time>
      </trkpt>
      <trkpt lat="42.97759" lon="-0.08897">
        <ele>538.48</ele>
        <time>2013-08-07T14:53:18Z</time>
      </trkpt>
      <trkpt lat="42.97763" lon="-0.08895">
        <ele>537.99</ele>
        <time>2013-08-07T14:53:19Z</time>
      </trkpt>
      <trkpt lat="42.97766" lon="-0.08893">
        <ele>537.51</ele>
        <time>2013-08-07T14:53:20Z</time>
      </trkpt>
      <trkpt lat="42.9777" lon="-0.08892">
        <ele>537.51</ele>
        <time>2013-08-07T14:53:21Z</time>
      </trkpt>
      <trkpt lat="42.97774" lon="-0.08891">
        <ele>537.03</ele>
        <time>2013-08-07T14:53:22Z</time>
      </trkpt>
      <trkpt lat="42.97779" lon="-0.08891">
        <ele>537.03</ele>
        <time>2013-08-07T14:53:23Z</time>
      </trkpt>
      <trkpt lat="42.97783" lon="-0.08891">
        <ele>537.03</ele>
        <time>2013-08-07T14:53:24Z</time>
      </trkpt>
      <trkpt lat="42.97787" lon="-0.08893">
        <ele>537.51</ele>
        <time>2013-08-07T14:53:25Z</time>
      </trkpt>
      <trkpt lat="42.97792" lon="-0.08895">
        <ele>537.03</ele>
        <time>2013-08-07T14:53:26Z</time>
      </trkpt>
      <trkpt lat="42.97796" lon="-0.08898">
        <ele>537.03</ele>
        <time>2013-08-07T14:53:27Z</time>
      </trkpt>
      <trkpt lat="42.97801" lon="-0.08903">
        <ele>536.55</ele>
        <time>2013-08-07T14:53:28Z</time>
      </trkpt>
      <trkpt lat="42.97805" lon="-0.08908">
        <ele>536.55</ele>
        <time>2013-08-07T14:53:29Z</time>
      </trkpt>
      <trkpt lat="42.97809" lon="-0.08913">
        <ele>536.07</ele>
        <time>2013-08-07T14:53:30Z</time>
      </trkpt>
      <trkpt lat="42.97819" lon="-0.08925">
        <ele>535.59</ele>
        <time>2013-08-07T14:53:32Z</time>
      </trkpt>
      <trkpt lat="42.97834" lon="-0.08943">
        <ele>535.59</ele>
        <time>2013-08-07T14:53:35Z</time>
      </trkpt>
      <trkpt lat="42.9784" lon="-0.08948">
        <ele>535.59</ele>
        <time>2013-08-07T14:53:36Z</time>
      </trkpt>
      <trkpt lat="42.97846" lon="-0.08952">
        <ele>535.59</ele>
        <time>2013-08-07T14:53:37Z</time>
      </trkpt>
      <trkpt lat="42.97853" lon="-0.08955">
        <ele>535.59</ele>
        <time>2013-08-07T14:53:38Z</time>
      </trkpt>
      <trkpt lat="42.9786" lon="-0.08956">
        <ele>534.63</ele>
        <time>2013-08-07T14:53:39Z</time>
      </trkpt>
      <trkpt lat="42.97867" lon="-0.08958">
        <ele>534.63</ele>
        <time>2013-08-07T14:53:40Z</time>
      </trkpt>
      <trkpt lat="42.97872" lon="-0.0896">
        <ele>534.15</ele>
        <time>2013-08-07T14:53:41Z</time>
      </trkpt>
      <trkpt lat="42.97876" lon="-0.08963">
        <ele>533.19</ele>
        <time>2013-08-07T14:53:42Z</time>
      </trkpt>
      <trkpt lat="42.97879" lon="-0.08965">
        <ele>533.19</ele>
        <time>2013-08-07T14:53:43Z</time>
      </trkpt>
      <trkpt lat="42.97898" lon="-0.08982">
        <ele>532.71</ele>
        <time>2013-08-07T14:53:49Z</time>
      </trkpt>
      <trkpt lat="42.97909" lon="-0.08994">
        <ele>532.23</ele>
        <time>2013-08-07T14:53:52Z</time>
      </trkpt>
      <trkpt lat="42.97922" lon="-0.09004">
        <ele>533.19</ele>
        <time>2013-08-07T14:53:55Z</time>
      </trkpt>
      <trkpt lat="42.97961" lon="-0.09033">
        <ele>535.59</ele>
        <time>2013-08-07T14:54:06Z</time>
      </trkpt>
      <trkpt lat="42.97963" lon="-0.09038">
        <ele>536.55</ele>
        <time>2013-08-07T14:54:07Z</time>
      </trkpt>
      <trkpt lat="42.97963" lon="-0.09042">
        <ele>537.03</ele>
        <time>2013-08-07T14:54:08Z</time>
      </trkpt>
      <trkpt lat="42.97963" lon="-0.09046">
        <ele>537.03</ele>
        <time>2013-08-07T14:54:09Z</time>
      </trkpt>
      <trkpt lat="42.97962" lon="-0.0905">
        <ele>537.99</ele>
        <time>2013-08-07T14:54:10Z</time>
      </trkpt>
      <trkpt lat="42.97949" lon="-0.09113">
        <ele>539.92</ele>
        <time>2013-08-07T14:54:24Z</time>
      </trkpt>
      <trkpt lat="42.97942" lon="-0.09135">
        <ele>540.88</ele>
        <time>2013-08-07T14:54:29Z</time>
      </trkpt>
      <trkpt lat="42.97963" lon="-0.09151">
        <ele>542.8</ele>
        <time>2013-08-07T14:54:37Z</time>
      </trkpt>
      <trkpt lat="42.98002" lon="-0.09177">
        <ele>545.2</ele>
        <time>2013-08-07T14:54:51Z</time>
      </trkpt>
      <trkpt lat="42.98013" lon="-0.09183">
        <ele>546.65</ele>
        <time>2013-08-07T14:54:55Z</time>
      </trkpt>
      <trkpt lat="42.98022" lon="-0.09182">
        <ele>547.13</ele>
        <time>2013-08-07T14:54:57Z</time>
      </trkpt>
      <trkpt lat="42.98031" lon="-0.09182">
        <ele>547.13</ele>
        <time>2013-08-07T14:54:59Z</time>
      </trkpt>
      <trkpt lat="42.98033" lon="-0.09186">
        <ele>547.61</ele>
        <time>2013-08-07T14:55:00Z</time>
      </trkpt>
      <trkpt lat="42.98033" lon="-0.09191">
        <ele>547.61</ele>
        <time>2013-08-07T14:55:01Z</time>
      </trkpt>
      <trkpt lat="42.98034" lon="-0.09236">
        <ele>550.49</ele>
        <time>2013-08-07T14:55:11Z</time>
      </trkpt>
      <trkpt lat="42.98042" lon="-0.09284">
        <ele>553.86</ele>
        <time>2013-08-07T14:55:22Z</time>
      </trkpt>
      <trkpt lat="42.9807" lon="-0.09334">
        <ele>555.78</ele>
        <time>2013-08-07T14:55:36Z</time>
      </trkpt>
      <trkpt lat="42.98095" lon="-0.09372">
        <ele>558.18</ele>
        <time>2013-08-07T14:55:49Z</time>
      </trkpt>
      <trkpt lat="42.98121" lon="-0.0941">
        <ele>561.55</ele>
        <time>2013-08-07T14:56:03Z</time>
      </trkpt>
      <trkpt lat="42.98146" lon="-0.09443">
        <ele>564.43</ele>
        <time>2013-08-07T14:56:16Z</time>
      </trkpt>
      <trkpt lat="42.98166" lon="-0.09463">
        <ele>566.35</ele>
        <time>2013-08-07T14:56:28Z</time>
      </trkpt>
      <trkpt lat="42.98167" lon="-0.09461">
        <ele>565.87</ele>
        <time>2013-08-07T14:56:29Z</time>
      </trkpt>
      <trkpt lat="42.98168" lon="-0.0946">
        <ele>564.43</ele>
        <time>2013-08-07T14:56:30Z</time>
      </trkpt>
      <trkpt lat="42.98172" lon="-0.09452">
        <ele>561.07</ele>
        <time>2013-08-07T14:56:33Z</time>
      </trkpt>
      <trkpt lat="42.98173" lon="-0.09447">
        <ele>560.11</ele>
        <time>2013-08-07T14:56:35Z</time>
      </trkpt>
      <trkpt lat="42.98175" lon="-0.09439">
        <ele>558.18</ele>
        <time>2013-08-07T14:56:39Z</time>
      </trkpt>
      <trkpt lat="42.98185" lon="-0.09425">
        <ele>554.34</ele>
        <time>2013-08-07T14:56:45Z</time>
      </trkpt>
      <trkpt lat="42.98199" lon="-0.09395">
        <ele>551.93</ele>
        <time>2013-08-07T14:56:56Z</time>
      </trkpt>
      <trkpt lat="42.98203" lon="-0.09386">
        <ele>551.93</ele>
        <time>2013-08-07T14:56:58Z</time>
      </trkpt>
      <trkpt lat="42.98201" lon="-0.09367">
        <ele>551.93</ele>
        <time>2013-08-07T14:57:02Z</time>
      </trkpt>
      <trkpt lat="42.98201" lon="-0.0934">
        <ele>552.41</ele>
        <time>2013-08-07T14:57:07Z</time>
      </trkpt>
      <trkpt lat="42.98227" lon="-0.09326">
        <ele>555.3</ele>
        <time>2013-08-07T14:57:16Z</time>
      </trkpt>
      <trkpt lat="42.98252" lon="-0.0933">
        <ele>553.86</ele>
        <time>2013-08-07T14:57:22Z</time>
      </trkpt>
      <trkpt lat="42.98258" lon="-0.09332">
        <ele>552.41</ele>
        <time>2013-08-07T14:57:23Z</time>
      </trkpt>
      <trkpt lat="42.98264" lon="-0.09334">
        <ele>552.41</ele>
        <time>2013-08-07T14:57:24Z</time>
      </trkpt>
      <trkpt lat="42.98268" lon="-0.09337">
        <ele>551.45</ele>
        <time>2013-08-07T14:57:25Z</time>
      </trkpt>
      <trkpt lat="42.98274" lon="-0.09339">
        <ele>551.45</ele>
        <time>2013-08-07T14:57:26Z</time>
      </trkpt>
      <trkpt lat="42.98278" lon="-0.09343">
        <ele>550.01</ele>
        <time>2013-08-07T14:57:27Z</time>
      </trkpt>
      <trkpt lat="42.98279" lon="-0.09348">
        <ele>549.05</ele>
        <time>2013-08-07T14:57:28Z</time>
      </trkpt>
      <trkpt lat="42.98288" lon="-0.09358">
        <ele>544.72</ele>
        <time>2013-08-07T14:57:31Z</time>
      </trkpt>
      <trkpt lat="42.98299" lon="-0.09366">
        <ele>539.92</ele>
        <time>2013-08-07T14:57:34Z</time>
      </trkpt>
      <trkpt lat="42.98304" lon="-0.09369">
        <ele>538.96</ele>
        <time>2013-08-07T14:57:35Z</time>
      </trkpt>
      <trkpt lat="42.9831" lon="-0.09372">
        <ele>537.51</ele>
        <time>2013-08-07T14:57:36Z</time>
      </trkpt>
      <trkpt lat="42.98315" lon="-0.09375">
        <ele>536.07</ele>
        <time>2013-08-07T14:57:37Z</time>
      </trkpt>
      <trkpt lat="42.9832" lon="-0.09378">
        <ele>535.11</ele>
        <time>2013-08-07T14:57:38Z</time>
      </trkpt>
      <trkpt lat="42.98324" lon="-0.09382">
        <ele>533.19</ele>
        <time>2013-08-07T14:57:39Z</time>
      </trkpt>
      <trkpt lat="42.9833" lon="-0.09386">
        <ele>531.27</ele>
        <time>2013-08-07T14:57:40Z</time>
      </trkpt>
      <trkpt lat="42.98336" lon="-0.09389">
        <ele>530.3</ele>
        <time>2013-08-07T14:57:41Z</time>
      </trkpt>
      <trkpt lat="42.98342" lon="-0.09391">
        <ele>528.86</ele>
        <time>2013-08-07T14:57:42Z</time>
      </trkpt>
      <trkpt lat="42.98352" lon="-0.09393">
        <ele>527.9</ele>
        <time>2013-08-07T14:57:44Z</time>
      </trkpt>
      <trkpt lat="42.9836" lon="-0.09393">
        <ele>526.46</ele>
        <time>2013-08-07T14:57:45Z</time>
      </trkpt>
      <trkpt lat="42.98365" lon="-0.0939">
        <ele>526.46</ele>
        <time>2013-08-07T14:57:46Z</time>
      </trkpt>
      <trkpt lat="42.98371" lon="-0.09388">
        <ele>526.46</ele>
        <time>2013-08-07T14:57:47Z</time>
      </trkpt>
      <trkpt lat="42.9839" lon="-0.09349">
        <ele>524.06</ele>
        <time>2013-08-07T14:57:52Z</time>
      </trkpt>
      <trkpt lat="42.98418" lon="-0.09291">
        <ele>523.09</ele>
        <time>2013-08-07T14:57:59Z</time>
      </trkpt>
      <trkpt lat="42.98424" lon="-0.09275">
        <ele>523.58</ele>
        <time>2013-08-07T14:58:01Z</time>
      </trkpt>
      <trkpt lat="42.98435" lon="-0.0926">
        <ele>523.09</ele>
        <time>2013-08-07T14:58:04Z</time>
      </trkpt>
      <trkpt lat="42.98441" lon="-0.09258">
        <ele>524.06</ele>
        <time>2013-08-07T14:58:05Z</time>
      </trkpt>
      <trkpt lat="42.98447" lon="-0.09257">
        <ele>523.58</ele>
        <time>2013-08-07T14:58:06Z</time>
      </trkpt>
      <trkpt lat="42.98452" lon="-0.09257">
        <ele>523.58</ele>
        <time>2013-08-07T14:58:07Z</time>
      </trkpt>
      <trkpt lat="42.98457" lon="-0.09258">
        <ele>524.06</ele>
        <time>2013-08-07T14:58:08Z</time>
      </trkpt>
      <trkpt lat="42.98462" lon="-0.09258">
        <ele>523.58</ele>
        <time>2013-08-07T14:58:09Z</time>
      </trkpt>
      <trkpt lat="42.98467" lon="-0.09258">
        <ele>524.06</ele>
        <time>2013-08-07T14:58:10Z</time>
      </trkpt>
      <trkpt lat="42.98471" lon="-0.09259">
        <ele>523.58</ele>
        <time>2013-08-07T14:58:11Z</time>
      </trkpt>
      <trkpt lat="42.98476" lon="-0.09261">
        <ele>524.06</ele>
        <time>2013-08-07T14:58:12Z</time>
      </trkpt>
      <trkpt lat="42.98485" lon="-0.09266">
        <ele>524.06</ele>
        <time>2013-08-07T14:58:14Z</time>
      </trkpt>
      <trkpt lat="42.98488" lon="-0.0927">
        <ele>524.06</ele>
        <time>2013-08-07T14:58:15Z</time>
      </trkpt>
      <trkpt lat="42.98495" lon="-0.09277">
        <ele>523.09</ele>
        <time>2013-08-07T14:58:17Z</time>
      </trkpt>
      <trkpt lat="42.98497" lon="-0.09281">
        <ele>522.61</ele>
        <time>2013-08-07T14:58:18Z</time>
      </trkpt>
      <trkpt lat="42.98501" lon="-0.09283">
        <ele>522.61</ele>
        <time>2013-08-07T14:58:19Z</time>
      </trkpt>
      <trkpt lat="42.98525" lon="-0.09303">
        <ele>519.73</ele>
        <time>2013-08-07T14:58:26Z</time>
      </trkpt>
      <trkpt lat="42.98532" lon="-0.09308">
        <ele>515.88</ele>
        <time>2013-08-07T14:58:29Z</time>
      </trkpt>
      <trkpt lat="42.98534" lon="-0.09306">
        <ele>515.88</ele>
        <time>2013-08-07T14:58:30Z</time>
      </trkpt>
      <trkpt lat="42.98536" lon="-0.09295">
        <ele>513</ele>
        <time>2013-08-07T14:58:33Z</time>
      </trkpt>
      <trkpt lat="42.98542" lon="-0.0928">
        <ele>508.19</ele>
        <time>2013-08-07T14:58:37Z</time>
      </trkpt>
      <trkpt lat="42.98548" lon="-0.0927">
        <ele>505.31</ele>
        <time>2013-08-07T14:58:40Z</time>
      </trkpt>
      <trkpt lat="42.98553" lon="-0.09268">
        <ele>503.87</ele>
        <time>2013-08-07T14:58:41Z</time>
      </trkpt>
      <trkpt lat="42.98564" lon="-0.09263">
        <ele>500.98</ele>
        <time>2013-08-07T14:58:43Z</time>
      </trkpt>
      <trkpt lat="42.98581" lon="-0.09261">
        <ele>498.1</ele>
        <time>2013-08-07T14:58:46Z</time>
      </trkpt>
      <trkpt lat="42.98587" lon="-0.0926">
        <ele>497.14</ele>
        <time>2013-08-07T14:58:47Z</time>
      </trkpt>
      <trkpt lat="42.98591" lon="-0.0926">
        <ele>496.18</ele>
        <time>2013-08-07T14:58:48Z</time>
      </trkpt>
      <trkpt lat="42.98597" lon="-0.09261">
        <ele>496.66</ele>
        <time>2013-08-07T14:58:49Z</time>
      </trkpt>
      <trkpt lat="42.98601" lon="-0.09263">
        <ele>496.18</ele>
        <time>2013-08-07T14:58:50Z</time>
      </trkpt>
      <trkpt lat="42.98606" lon="-0.09265">
        <ele>496.18</ele>
        <time>2013-08-07T14:58:51Z</time>
      </trkpt>
      <trkpt lat="42.98611" lon="-0.09269">
        <ele>495.22</ele>
        <time>2013-08-07T14:58:52Z</time>
      </trkpt>
      <trkpt lat="42.98616" lon="-0.09274">
        <ele>495.22</ele>
        <time>2013-08-07T14:58:53Z</time>
      </trkpt>
      <trkpt lat="42.98622" lon="-0.0928">
        <ele>495.22</ele>
        <time>2013-08-07T14:58:54Z</time>
      </trkpt>
      <trkpt lat="42.98627" lon="-0.09285">
        <ele>494.26</ele>
        <time>2013-08-07T14:58:55Z</time>
      </trkpt>
      <trkpt lat="42.98654" lon="-0.09309">
        <ele>491.37</ele>
        <time>2013-08-07T14:58:59Z</time>
      </trkpt>
      <trkpt lat="42.98677" lon="-0.09335">
        <ele>488.01</ele>
        <time>2013-08-07T14:59:03Z</time>
      </trkpt>
      <trkpt lat="42.98684" lon="-0.0934">
        <ele>486.56</ele>
        <time>2013-08-07T14:59:04Z</time>
      </trkpt>
      <trkpt lat="42.98689" lon="-0.09342">
        <ele>485.6</ele>
        <time>2013-08-07T14:59:05Z</time>
      </trkpt>
      <trkpt lat="42.98693" lon="-0.0934">
        <ele>484.64</ele>
        <time>2013-08-07T14:59:06Z</time>
      </trkpt>
      <trkpt lat="42.98707" lon="-0.09314">
        <ele>484.16</ele>
        <time>2013-08-07T14:59:11Z</time>
      </trkpt>
      <trkpt lat="42.98711" lon="-0.09301">
        <ele>483.68</ele>
        <time>2013-08-07T14:59:13Z</time>
      </trkpt>
      <trkpt lat="42.98731" lon="-0.09271">
        <ele>483.2</ele>
        <time>2013-08-07T14:59:19Z</time>
      </trkpt>
      <trkpt lat="42.98743" lon="-0.09255">
        <ele>483.68</ele>
        <time>2013-08-07T14:59:23Z</time>
      </trkpt>
      <trkpt lat="42.98752" lon="-0.09235">
        <ele>480.8</ele>
        <time>2013-08-07T14:59:28Z</time>
      </trkpt>
      <trkpt lat="42.98752" lon="-0.09211">
        <ele>478.87</ele>
        <time>2013-08-07T14:59:33Z</time>
      </trkpt>
      <trkpt lat="42.98747" lon="-0.09198">
        <ele>477.91</ele>
        <time>2013-08-07T14:59:36Z</time>
      </trkpt>
      <trkpt lat="42.98741" lon="-0.09178">
        <ele>476.47</ele>
        <time>2013-08-07T14:59:39Z</time>
      </trkpt>
      <trkpt lat="42.98733" lon="-0.09155">
        <ele>474.07</ele>
        <time>2013-08-07T14:59:42Z</time>
      </trkpt>
      <trkpt lat="42.98727" lon="-0.09141">
        <ele>474.07</ele>
        <time>2013-08-07T14:59:44Z</time>
      </trkpt>
      <trkpt lat="42.98717" lon="-0.09126">
        <ele>473.11</ele>
        <time>2013-08-07T14:59:46Z</time>
      </trkpt>
      <trkpt lat="42.98693" lon="-0.09101">
        <ele>469.74</ele>
        <time>2013-08-07T14:59:50Z</time>
      </trkpt>
      <trkpt lat="42.98678" lon="-0.09089">
        <ele>468.3</ele>
        <time>2013-08-07T14:59:53Z</time>
      </trkpt>
      <trkpt lat="42.98651" lon="-0.09063">
        <ele>465.42</ele>
        <time>2013-08-07T14:59:58Z</time>
      </trkpt>
      <trkpt lat="42.98638" lon="-0.09056">
        <ele>463.97</ele>
        <time>2013-08-07T15:00:00Z</time>
      </trkpt>
      <trkpt lat="42.98628" lon="-0.0905">
        <ele>463.49</ele>
        <time>2013-08-07T15:00:02Z</time>
      </trkpt>
      <trkpt lat="42.98611" lon="-0.09046">
        <ele>462.53</ele>
        <time>2013-08-07T15:00:04Z</time>
      </trkpt>
      <trkpt lat="42.98589" lon="-0.09031">
        <ele>458.21</ele>
        <time>2013-08-07T15:00:08Z</time>
      </trkpt>
      <trkpt lat="42.98583" lon="-0.09025">
        <ele>455.32</ele>
        <time>2013-08-07T15:00:10Z</time>
      </trkpt>
      <trkpt lat="42.98572" lon="-0.09008">
        <ele>450.03</ele>
        <time>2013-08-07T15:00:13Z</time>
      </trkpt>
      <trkpt lat="42.98571" lon="-0.09004">
        <ele>449.07</ele>
        <time>2013-08-07T15:00:14Z</time>
      </trkpt>
      <trkpt lat="42.9857" lon="-0.08996">
        <ele>446.19</ele>
        <time>2013-08-07T15:00:19Z</time>
      </trkpt>
      <trkpt lat="42.98559" lon="-0.08978">
        <ele>443.79</ele>
        <time>2013-08-07T15:00:26Z</time>
      </trkpt>
      <trkpt lat="42.98565" lon="-0.08955">
        <ele>440.9</ele>
        <time>2013-08-07T15:00:31Z</time>
      </trkpt>
      <trkpt lat="42.98561" lon="-0.08908">
        <ele>437.54</ele>
        <time>2013-08-07T15:00:36Z</time>
      </trkpt>
      <trkpt lat="42.98565" lon="-0.08889">
        <ele>436.58</ele>
        <time>2013-08-07T15:00:38Z</time>
      </trkpt>
      <trkpt lat="42.98572" lon="-0.08864">
        <ele>436.58</ele>
        <time>2013-08-07T15:00:41Z</time>
      </trkpt>
      <trkpt lat="42.98577" lon="-0.0884">
        <ele>435.61</ele>
        <time>2013-08-07T15:00:45Z</time>
      </trkpt>
      <trkpt lat="42.98579" lon="-0.08834">
        <ele>435.61</ele>
        <time>2013-08-07T15:00:47Z</time>
      </trkpt>
      <trkpt lat="42.98593" lon="-0.08806">
        <ele>435.61</ele>
        <time>2013-08-07T15:00:55Z</time>
      </trkpt>
      <trkpt lat="42.98598" lon="-0.08795">
        <ele>436.58</ele>
        <time>2013-08-07T15:00:57Z</time>
      </trkpt>
      <trkpt lat="42.98609" lon="-0.08775">
        <ele>435.61</ele>
        <time>2013-08-07T15:01:01Z</time>
      </trkpt>
      <trkpt lat="42.98618" lon="-0.08755">
        <ele>436.1</ele>
        <time>2013-08-07T15:01:05Z</time>
      </trkpt>
      <trkpt lat="42.98623" lon="-0.08744">
        <ele>435.13</ele>
        <time>2013-08-07T15:01:07Z</time>
      </trkpt>
      <trkpt lat="42.98664" lon="-0.08671">
        <ele>435.61</ele>
        <time>2013-08-07T15:01:21Z</time>
      </trkpt>
      <trkpt lat="42.98667" lon="-0.08665">
        <ele>435.61</ele>
        <time>2013-08-07T15:01:22Z</time>
      </trkpt>
      <trkpt lat="42.98676" lon="-0.0865">
        <ele>436.1</ele>
        <time>2013-08-07T15:01:25Z</time>
      </trkpt>
      <trkpt lat="42.98723" lon="-0.08554">
        <ele>436.58</ele>
        <time>2013-08-07T15:01:40Z</time>
      </trkpt>
      <trkpt lat="42.98735" lon="-0.08528">
        <ele>435.61</ele>
        <time>2013-08-07T15:01:44Z</time>
      </trkpt>
      <trkpt lat="42.98746" lon="-0.08509">
        <ele>436.1</ele>
        <time>2013-08-07T15:01:47Z</time>
      </trkpt>
      <trkpt lat="42.98767" lon="-0.08472">
        <ele>436.1</ele>
        <time>2013-08-07T15:01:53Z</time>
      </trkpt>
      <trkpt lat="42.98779" lon="-0.08426">
        <ele>435.61</ele>
        <time>2013-08-07T15:02:00Z</time>
      </trkpt>
      <trkpt lat="42.98797" lon="-0.08362">
        <ele>435.61</ele>
        <time>2013-08-07T15:02:13Z</time>
      </trkpt>
      <trkpt lat="42.98803" lon="-0.08335">
        <ele>435.13</ele>
        <time>2013-08-07T15:02:19Z</time>
      </trkpt>
      <trkpt lat="42.98799" lon="-0.08305">
        <ele>435.13</ele>
        <time>2013-08-07T15:02:24Z</time>
      </trkpt>
      <trkpt lat="42.98792" lon="-0.08288">
        <ele>435.61</ele>
        <time>2013-08-07T15:02:27Z</time>
      </trkpt>
      <trkpt lat="42.98786" lon="-0.08271">
        <ele>435.61</ele>
        <time>2013-08-07T15:02:30Z</time>
      </trkpt>
      <trkpt lat="42.98783" lon="-0.08245">
        <ele>436.1</ele>
        <time>2013-08-07T15:02:34Z</time>
      </trkpt>
      <trkpt lat="42.9878" lon="-0.08224">
        <ele>436.58</ele>
        <time>2013-08-07T15:02:37Z</time>
      </trkpt>
      <trkpt lat="42.98778" lon="-0.08211">
        <ele>436.1</ele>
        <time>2013-08-07T15:02:39Z</time>
      </trkpt>
      <trkpt lat="42.98769" lon="-0.08179">
        <ele>436.1</ele>
        <time>2013-08-07T15:02:44Z</time>
      </trkpt>
      <trkpt lat="42.9877" lon="-0.08154">
        <ele>436.1</ele>
        <time>2013-08-07T15:02:48Z</time>
      </trkpt>
      <trkpt lat="42.98777" lon="-0.08137">
        <ele>436.58</ele>
        <time>2013-08-07T15:02:51Z</time>
      </trkpt>
      <trkpt lat="42.98797" lon="-0.08127">
        <ele>437.06</ele>
        <time>2013-08-07T15:02:56Z</time>
      </trkpt>
      <trkpt lat="42.98894" lon="-0.08167">
        <ele>437.06</ele>
        <time>2013-08-07T15:03:13Z</time>
      </trkpt>
      <trkpt lat="42.98975" lon="-0.08204">
        <ele>437.06</ele>
        <time>2013-08-07T15:03:26Z</time>
      </trkpt>
      <trkpt lat="42.99075" lon="-0.08251">
        <ele>436.58</ele>
        <time>2013-08-07T15:03:42Z</time>
      </trkpt>
      <trkpt lat="42.99174" lon="-0.08296">
        <ele>434.17</ele>
        <time>2013-08-07T15:03:58Z</time>
      </trkpt>
      <trkpt lat="42.9925" lon="-0.08331">
        <ele>433.69</ele>
        <time>2013-08-07T15:04:10Z</time>
      </trkpt>
      <trkpt lat="42.99251" lon="-0.08362">
        <ele>433.21</ele>
        <time>2013-08-07T15:04:16Z</time>
      </trkpt>
      <trkpt lat="42.9925" lon="-0.08369">
        <ele>433.21</ele>
        <time>2013-08-07T15:04:17Z</time>
      </trkpt>
      <trkpt lat="42.99242" lon="-0.08408">
        <ele>433.69</ele>
        <time>2013-08-07T15:04:22Z</time>
      </trkpt>
      <trkpt lat="42.99249" lon="-0.08461">
        <ele>432.73</ele>
        <time>2013-08-07T15:04:29Z</time>
      </trkpt>
      <trkpt lat="42.99277" lon="-0.08511">
        <ele>432.25</ele>
        <time>2013-08-07T15:04:37Z</time>
      </trkpt>
      <trkpt lat="42.99284" lon="-0.08548">
        <ele>431.77</ele>
        <time>2013-08-07T15:04:42Z</time>
      </trkpt>
      <trkpt lat="42.99292" lon="-0.08583">
        <ele>432.25</ele>
        <time>2013-08-07T15:04:47Z</time>
      </trkpt>
      <trkpt lat="42.99301" lon="-0.08591">
        <ele>432.25</ele>
        <time>2013-08-07T15:04:49Z</time>
      </trkpt>
      <trkpt lat="42.99313" lon="-0.08607">
        <ele>432.25</ele>
        <time>2013-08-07T15:04:52Z</time>
      </trkpt>
      <trkpt lat="42.99315" lon="-0.08656">
        <ele>431.77</ele>
        <time>2013-08-07T15:04:59Z</time>
      </trkpt>
      <trkpt lat="42.99298" lon="-0.08684">
        <ele>431.77</ele>
        <time>2013-08-07T15:05:04Z</time>
      </trkpt>
      <trkpt lat="42.99294" lon="-0.08721">
        <ele>432.25</ele>
        <time>2013-08-07T15:05:09Z</time>
      </trkpt>
      <trkpt lat="42.99298" lon="-0.0884">
        <ele>432.73</ele>
        <time>2013-08-07T15:05:25Z</time>
      </trkpt>
      <trkpt lat="42.99304" lon="-0.08977">
        <ele>432.73</ele>
        <time>2013-08-07T15:05:44Z</time>
      </trkpt>
      <trkpt lat="42.99303" lon="-0.09072">
        <ele>432.25</ele>
        <time>2013-08-07T15:06:00Z</time>
      </trkpt>
      <trkpt lat="42.99302" lon="-0.09076">
        <ele>431.77</ele>
        <time>2013-08-07T15:06:04Z</time>
      </trkpt>
      <trkpt lat="42.99297" lon="-0.09074">
        <ele>432.25</ele>
        <time>2013-08-07T15:06:08Z</time>
      </trkpt>
      <trkpt lat="42.99303" lon="-0.09081">
        <ele>433.21</ele>
        <time>2013-08-07T15:06:14Z</time>
      </trkpt>
      <trkpt lat="42.99358" lon="-0.09108">
        <ele>434.17</ele>
        <time>2013-08-07T15:06:29Z</time>
      </trkpt>
      <trkpt lat="42.99383" lon="-0.09121">
        <ele>434.17</ele>
        <time>2013-08-07T15:06:35Z</time>
      </trkpt>
      <trkpt lat="42.99395" lon="-0.09131">
        <ele>435.13</ele>
        <time>2013-08-07T15:06:38Z</time>
      </trkpt>
      <trkpt lat="42.99422" lon="-0.09146">
        <ele>435.13</ele>
        <time>2013-08-07T15:06:44Z</time>
      </trkpt>
      <trkpt lat="42.99454" lon="-0.0916">
        <ele>435.13</ele>
        <time>2013-08-07T15:06:52Z</time>
      </trkpt>
      <trkpt lat="42.99447" lon="-0.09163">
        <ele>436.58</ele>
        <time>2013-08-07T15:06:59Z</time>
      </trkpt>
      <trkpt lat="42.99431" lon="-0.09178">
        <ele>440.42</ele>
        <time>2013-08-07T15:07:12Z</time>
      </trkpt>
      <trkpt lat="42.9942" lon="-0.09179">
        <ele>443.31</ele>
        <time>2013-08-07T15:07:22Z</time>
      </trkpt>
      <trkpt lat="42.99408" lon="-0.09183">
        <ele>446.67</ele>
        <time>2013-08-07T15:07:33Z</time>
      </trkpt>
      <trkpt lat="42.99407" lon="-0.09186">
        <ele>447.15</ele>
        <time>2013-08-07T15:07:36Z</time>
      </trkpt>
      <trkpt lat="42.99412" lon="-0.09188">
        <ele>445.71</ele>
        <time>2013-08-07T15:07:42Z</time>
      </trkpt>
      <trkpt lat="42.99408" lon="-0.09189">
        <ele>445.71</ele>
        <time>2013-08-07T15:07:46Z</time>
      </trkpt>
      <trkpt lat="42.99396" lon="-0.09186">
        <ele>447.63</ele>
        <time>2013-08-07T15:07:53Z</time>
      </trkpt>
      <trkpt lat="42.99372" lon="-0.09184">
        <ele>451</ele>
        <time>2013-08-07T15:08:05Z</time>
      </trkpt>
      <trkpt lat="42.9935" lon="-0.092">
        <ele>453.88</ele>
        <time>2013-08-07T15:08:16Z</time>
      </trkpt>
      <trkpt lat="42.99349" lon="-0.09215">
        <ele>455.32</ele>
        <time>2013-08-07T15:08:22Z</time>
      </trkpt>
      <trkpt lat="42.99335" lon="-0.0926">
        <ele>459.17</ele>
        <time>2013-08-07T15:08:36Z</time>
      </trkpt>
      <trkpt lat="42.99323" lon="-0.09288">
        <ele>460.13</ele>
        <time>2013-08-07T15:08:45Z</time>
      </trkpt>
      <trkpt lat="42.99303" lon="-0.09315">
        <ele>461.57</ele>
        <time>2013-08-07T15:08:57Z</time>
      </trkpt>
      <trkpt lat="42.99273" lon="-0.09314">
        <ele>463.49</ele>
        <time>2013-08-07T15:09:08Z</time>
      </trkpt>
      <trkpt lat="42.99251" lon="-0.09321">
        <ele>466.38</ele>
        <time>2013-08-07T15:09:17Z</time>
      </trkpt>
      <trkpt lat="42.99243" lon="-0.09333">
        <ele>467.82</ele>
        <time>2013-08-07T15:09:22Z</time>
      </trkpt>
      <trkpt lat="42.99232" lon="-0.09345">
        <ele>470.7</ele>
        <time>2013-08-07T15:09:31Z</time>
      </trkpt>
      <trkpt lat="42.99227" lon="-0.09353">
        <ele>472.14</ele>
        <time>2013-08-07T15:09:35Z</time>
      </trkpt>
      <trkpt lat="42.99213" lon="-0.09367">
        <ele>475.03</ele>
        <time>2013-08-07T15:09:46Z</time>
      </trkpt>
      <trkpt lat="42.99198" lon="-0.09391">
        <ele>476.95</ele>
        <time>2013-08-07T15:09:57Z</time>
      </trkpt>
      <trkpt lat="42.99197" lon="-0.09424">
        <ele>479.84</ele>
        <time>2013-08-07T15:10:08Z</time>
      </trkpt>
      <trkpt lat="42.99203" lon="-0.09455">
        <ele>483.2</ele>
        <time>2013-08-07T15:10:18Z</time>
      </trkpt>
      <trkpt lat="42.9921" lon="-0.09478">
        <ele>486.56</ele>
        <time>2013-08-07T15:10:27Z</time>
      </trkpt>
      <trkpt lat="42.99231" lon="-0.09511">
        <ele>489.93</ele>
        <time>2013-08-07T15:10:43Z</time>
      </trkpt>
      <trkpt lat="42.9926" lon="-0.09549">
        <ele>491.37</ele>
        <time>2013-08-07T15:10:58Z</time>
      </trkpt>
      <trkpt lat="42.99294" lon="-0.09589">
        <ele>491.37</ele>
        <time>2013-08-07T15:11:12Z</time>
      </trkpt>
      <trkpt lat="42.99311" lon="-0.09613">
        <ele>491.37</ele>
        <time>2013-08-07T15:11:19Z</time>
      </trkpt>
      <trkpt lat="42.99335" lon="-0.09617">
        <ele>489.45</ele>
        <time>2013-08-07T15:11:25Z</time>
      </trkpt>
      <trkpt lat="42.9937" lon="-0.09587">
        <ele>490.89</ele>
        <time>2013-08-07T15:11:34Z</time>
      </trkpt>
      <trkpt lat="42.99415" lon="-0.09539">
        <ele>489.93</ele>
        <time>2013-08-07T15:11:46Z</time>
      </trkpt>
      <trkpt lat="42.99439" lon="-0.09499">
        <ele>491.85</ele>
        <time>2013-08-07T15:11:56Z</time>
      </trkpt>
      <trkpt lat="42.99442" lon="-0.09447">
        <ele>495.22</ele>
        <time>2013-08-07T15:12:08Z</time>
      </trkpt>
      <trkpt lat="42.99441" lon="-0.09444">
        <ele>495.7</ele>
        <time>2013-08-07T15:12:09Z</time>
      </trkpt>
      <trkpt lat="42.99445" lon="-0.09426">
        <ele>497.62</ele>
        <time>2013-08-07T15:12:15Z</time>
      </trkpt>
      <trkpt lat="42.99464" lon="-0.09394">
        <ele>497.14</ele>
        <time>2013-08-07T15:12:23Z</time>
      </trkpt>
      <trkpt lat="42.99481" lon="-0.09383">
        <ele>493.29</ele>
        <time>2013-08-07T15:12:27Z</time>
      </trkpt>
      <trkpt lat="42.99485" lon="-0.09385">
        <ele>493.29</ele>
        <time>2013-08-07T15:12:28Z</time>
      </trkpt>
      <trkpt lat="42.99493" lon="-0.09389">
        <ele>491.85</ele>
        <time>2013-08-07T15:12:30Z</time>
      </trkpt>
      <trkpt lat="42.995" lon="-0.09391">
        <ele>489.45</ele>
        <time>2013-08-07T15:12:32Z</time>
      </trkpt>
      <trkpt lat="42.99518" lon="-0.09397">
        <ele>485.6</ele>
        <time>2013-08-07T15:12:35Z</time>
      </trkpt>
      <trkpt lat="42.99543" lon="-0.09415">
        <ele>480.8</ele>
        <time>2013-08-07T15:12:39Z</time>
      </trkpt>
      <trkpt lat="42.99564" lon="-0.09423">
        <ele>477.91</ele>
        <time>2013-08-07T15:12:42Z</time>
      </trkpt>
      <trkpt lat="42.99571" lon="-0.09425">
        <ele>475.99</ele>
        <time>2013-08-07T15:12:43Z</time>
      </trkpt>
      <trkpt lat="42.99588" lon="-0.09432">
        <ele>473.59</ele>
        <time>2013-08-07T15:12:46Z</time>
      </trkpt>
      <trkpt lat="42.99594" lon="-0.09436">
        <ele>472.63</ele>
        <time>2013-08-07T15:12:47Z</time>
      </trkpt>
      <trkpt lat="42.99614" lon="-0.09447">
        <ele>471.18</ele>
        <time>2013-08-07T15:12:50Z</time>
      </trkpt>
      <trkpt lat="42.99639" lon="-0.09454">
        <ele>469.74</ele>
        <time>2013-08-07T15:12:53Z</time>
      </trkpt>
      <trkpt lat="42.99657" lon="-0.09457">
        <ele>468.3</ele>
        <time>2013-08-07T15:12:55Z</time>
      </trkpt>
      <trkpt lat="42.99721" lon="-0.09451">
        <ele>465.42</ele>
        <time>2013-08-07T15:13:03Z</time>
      </trkpt>
      <trkpt lat="42.99734" lon="-0.09447">
        <ele>465.42</ele>
        <time>2013-08-07T15:13:05Z</time>
      </trkpt>
      <trkpt lat="42.99752" lon="-0.09434">
        <ele>460.61</ele>
        <time>2013-08-07T15:13:09Z</time>
      </trkpt>
      <trkpt lat="42.99755" lon="-0.09429">
        <ele>459.65</ele>
        <time>2013-08-07T15:13:10Z</time>
      </trkpt>
      <trkpt lat="42.99765" lon="-0.09425">
        <ele>456.76</ele>
        <time>2013-08-07T15:13:13Z</time>
      </trkpt>
      <trkpt lat="42.99774" lon="-0.09419">
        <ele>454.36</ele>
        <time>2013-08-07T15:13:16Z</time>
      </trkpt>
      <trkpt lat="42.99775" lon="-0.09411">
        <ele>452.92</ele>
        <time>2013-08-07T15:13:19Z</time>
      </trkpt>
      <trkpt lat="42.99775" lon="-0.09409">
        <ele>451.96</ele>
        <time>2013-08-07T15:13:20Z</time>
      </trkpt>
      <trkpt lat="42.99774" lon="-0.09403">
        <ele>450.52</ele>
        <time>2013-08-07T15:13:24Z</time>
      </trkpt>
      <trkpt lat="42.99774" lon="-0.09403">
        <ele>450.52</ele>
        <time>2013-08-07T15:13:25Z</time>
      </trkpt>
      <trkpt lat="42.99771" lon="-0.09392">
        <ele>446.67</ele>
        <time>2013-08-07T15:13:31Z</time>
      </trkpt>
      <trkpt lat="42.99778" lon="-0.09396">
        <ele>446.19</ele>
        <time>2013-08-07T15:13:34Z</time>
      </trkpt>
      <trkpt lat="42.99803" lon="-0.09442">
        <ele>449.07</ele>
        <time>2013-08-07T15:13:48Z</time>
      </trkpt>
      <trkpt lat="42.99805" lon="-0.09463">
        <ele>449.07</ele>
        <time>2013-08-07T15:13:52Z</time>
      </trkpt>
      <trkpt lat="42.99804" lon="-0.09494">
        <ele>448.11</ele>
        <time>2013-08-07T15:13:57Z</time>
      </trkpt>
      <trkpt lat="42.99806" lon="-0.0952">
        <ele>448.59</ele>
        <time>2013-08-07T15:14:01Z</time>
      </trkpt>
      <trkpt lat="42.99809" lon="-0.09555">
        <ele>448.11</ele>
        <time>2013-08-07T15:14:06Z</time>
      </trkpt>
      <trkpt lat="42.99801" lon="-0.09611">
        <ele>449.07</ele>
        <time>2013-08-07T15:14:15Z</time>
      </trkpt>
      <trkpt lat="42.99794" lon="-0.09633">
        <ele>450.03</ele>
        <time>2013-08-07T15:14:19Z</time>
      </trkpt>
      <trkpt lat="42.99786" lon="-0.09679">
        <ele>450.52</ele>
        <time>2013-08-07T15:14:26Z</time>
      </trkpt>
      <trkpt lat="42.99781" lon="-0.09698">
        <ele>451</ele>
        <time>2013-08-07T15:14:29Z</time>
      </trkpt>
      <trkpt lat="42.99773" lon="-0.09746">
        <ele>452.44</ele>
        <time>2013-08-07T15:14:37Z</time>
      </trkpt>
      <trkpt lat="42.9977" lon="-0.09764">
        <ele>452.92</ele>
        <time>2013-08-07T15:14:40Z</time>
      </trkpt>
      <trkpt lat="42.9975" lon="-0.09861">
        <ele>456.28</ele>
        <time>2013-08-07T15:14:58Z</time>
      </trkpt>
      <trkpt lat="42.99748" lon="-0.09878">
        <ele>456.76</ele>
        <time>2013-08-07T15:15:01Z</time>
      </trkpt>
      <trkpt lat="42.99747" lon="-0.0989">
        <ele>456.76</ele>
        <time>2013-08-07T15:15:03Z</time>
      </trkpt>
      <trkpt lat="42.99748" lon="-0.09914">
        <ele>456.76</ele>
        <time>2013-08-07T15:15:07Z</time>
      </trkpt>
      <trkpt lat="42.9975" lon="-0.09926">
        <ele>456.76</ele>
        <time>2013-08-07T15:15:09Z</time>
      </trkpt>
      <trkpt lat="42.99763" lon="-0.09939">
        <ele>456.76</ele>
        <time>2013-08-07T15:15:13Z</time>
      </trkpt>
      <trkpt lat="42.99819" lon="-0.09943">
        <ele>458.21</ele>
        <time>2013-08-07T15:15:25Z</time>
      </trkpt>
      <trkpt lat="42.99828" lon="-0.09946">
        <ele>458.21</ele>
        <time>2013-08-07T15:15:27Z</time>
      </trkpt>
      <trkpt lat="42.99847" lon="-0.09953">
        <ele>458.69</ele>
        <time>2013-08-07T15:15:31Z</time>
      </trkpt>
      <trkpt lat="42.9992" lon="-0.0996">
        <ele>457.24</ele>
        <time>2013-08-07T15:15:44Z</time>
      </trkpt>
      <trkpt lat="42.99926" lon="-0.09991">
        <ele>457.72</ele>
        <time>2013-08-07T15:15:50Z</time>
      </trkpt>
      <trkpt lat="42.99923" lon="-0.10033">
        <ele>459.17</ele>
        <time>2013-08-07T15:15:57Z</time>
      </trkpt>
      <trkpt lat="42.99923" lon="-0.10045">
        <ele>459.17</ele>
        <time>2013-08-07T15:15:59Z</time>
      </trkpt>
      <trkpt lat="42.99922" lon="-0.10057">
        <ele>459.65</ele>
        <time>2013-08-07T15:16:01Z</time>
      </trkpt>
      <trkpt lat="42.99923" lon="-0.10093">
        <ele>459.65</ele>
        <time>2013-08-07T15:16:07Z</time>
      </trkpt>
      <trkpt lat="42.99925" lon="-0.10116">
        <ele>460.61</ele>
        <time>2013-08-07T15:16:11Z</time>
      </trkpt>
      <trkpt lat="42.99926" lon="-0.10122">
        <ele>461.09</ele>
        <time>2013-08-07T15:16:12Z</time>
      </trkpt>
      <trkpt lat="42.99927" lon="-0.10127">
        <ele>461.57</ele>
        <time>2013-08-07T15:16:13Z</time>
      </trkpt>
      <trkpt lat="42.99943" lon="-0.102">
        <ele>463.01</ele>
        <time>2013-08-07T15:16:26Z</time>
      </trkpt>
      <trkpt lat="42.99945" lon="-0.10206">
        <ele>463.01</ele>
        <time>2013-08-07T15:16:27Z</time>
      </trkpt>
      <trkpt lat="42.99983" lon="-0.10332">
        <ele>464.93</ele>
        <time>2013-08-07T15:16:48Z</time>
      </trkpt>
      <trkpt lat="42.99984" lon="-0.10338">
        <ele>464.93</ele>
        <time>2013-08-07T15:16:49Z</time>
      </trkpt>
      <trkpt lat="42.99995" lon="-0.10407">
        <ele>466.38</ele>
        <time>2013-08-07T15:17:00Z</time>
      </trkpt>
      <trkpt lat="42.99988" lon="-0.10463">
        <ele>467.34</ele>
        <time>2013-08-07T15:17:12Z</time>
      </trkpt>
      <trkpt lat="42.99985" lon="-0.1047">
        <ele>467.82</ele>
        <time>2013-08-07T15:17:15Z</time>
      </trkpt>
      <trkpt lat="42.99987" lon="-0.10477">
        <ele>469.26</ele>
        <time>2013-08-07T15:17:19Z</time>
      </trkpt>
      <trkpt lat="42.99992" lon="-0.10477">
        <ele>470.7</ele>
        <time>2013-08-07T15:17:22Z</time>
      </trkpt>
      <trkpt lat="43.00015" lon="-0.10468">
        <ele>473.11</ele>
        <time>2013-08-07T15:17:33Z</time>
      </trkpt>
      <trkpt lat="43.00024" lon="-0.10459">
        <ele>472.63</ele>
        <time>2013-08-07T15:17:44Z</time>
      </trkpt>
      <trkpt lat="43.00024" lon="-0.10459">
        <ele>473.11</ele>
        <time>2013-08-07T15:18:04Z</time>
      </trkpt>
      <trkpt lat="43.00027" lon="-0.1046">
        <ele>473.59</ele>
        <time>2013-08-07T15:18:09Z</time>
      </trkpt>
      <trkpt lat="43.00055" lon="-0.10462">
        <ele>472.63</ele>
        <time>2013-08-07T15:18:21Z</time>
      </trkpt>
      <trkpt lat="43.0007" lon="-0.10454">
        <ele>473.11</ele>
        <time>2013-08-07T15:18:25Z</time>
      </trkpt>
      <trkpt lat="43.00092" lon="-0.10436">
        <ele>472.14</ele>
        <time>2013-08-07T15:18:30Z</time>
      </trkpt>
      <trkpt lat="43.00116" lon="-0.10412">
        <ele>471.18</ele>
        <time>2013-08-07T15:18:35Z</time>
      </trkpt>
      <trkpt lat="43.00118" lon="-0.10408">
        <ele>471.18</ele>
        <time>2013-08-07T15:18:36Z</time>
      </trkpt>
      <trkpt lat="43.00122" lon="-0.10406">
        <ele>470.7</ele>
        <time>2013-08-07T15:18:37Z</time>
      </trkpt>
      <trkpt lat="43.00129" lon="-0.10405">
        <ele>471.66</ele>
        <time>2013-08-07T15:18:38Z</time>
      </trkpt>
      <trkpt lat="43.00176" lon="-0.10398">
        <ele>471.18</ele>
        <time>2013-08-07T15:18:45Z</time>
      </trkpt>
      <trkpt lat="43.00188" lon="-0.10394">
        <ele>470.7</ele>
        <time>2013-08-07T15:18:47Z</time>
      </trkpt>
      <trkpt lat="43.00193" lon="-0.10394">
        <ele>471.18</ele>
        <time>2013-08-07T15:18:48Z</time>
      </trkpt>
      <trkpt lat="43.00197" lon="-0.10393">
        <ele>471.18</ele>
        <time>2013-08-07T15:18:49Z</time>
      </trkpt>
      <trkpt lat="43.00202" lon="-0.10393">
        <ele>470.7</ele>
        <time>2013-08-07T15:18:50Z</time>
      </trkpt>
      <trkpt lat="43.00207" lon="-0.10392">
        <ele>469.74</ele>
        <time>2013-08-07T15:18:51Z</time>
      </trkpt>
      <trkpt lat="43.00212" lon="-0.1039">
        <ele>469.74</ele>
        <time>2013-08-07T15:18:52Z</time>
      </trkpt>
      <trkpt lat="43.00222" lon="-0.10386">
        <ele>468.3</ele>
        <time>2013-08-07T15:18:54Z</time>
      </trkpt>
      <trkpt lat="43.00226" lon="-0.10384">
        <ele>467.34</ele>
        <time>2013-08-07T15:18:55Z</time>
      </trkpt>
      <trkpt lat="43.00231" lon="-0.10382">
        <ele>466.38</ele>
        <time>2013-08-07T15:18:56Z</time>
      </trkpt>
      <trkpt lat="43.00236" lon="-0.10379">
        <ele>465.42</ele>
        <time>2013-08-07T15:18:57Z</time>
      </trkpt>
      <trkpt lat="43.00241" lon="-0.10376">
        <ele>464.93</ele>
        <time>2013-08-07T15:18:58Z</time>
      </trkpt>
      <trkpt lat="43.00252" lon="-0.1037">
        <ele>463.97</ele>
        <time>2013-08-07T15:19:00Z</time>
      </trkpt>
      <trkpt lat="43.00267" lon="-0.10361">
        <ele>463.01</ele>
        <time>2013-08-07T15:19:03Z</time>
      </trkpt>
      <trkpt lat="43.00272" lon="-0.10357">
        <ele>463.01</ele>
        <time>2013-08-07T15:19:04Z</time>
      </trkpt>
      <trkpt lat="43.00331" lon="-0.10313">
        <ele>465.9</ele>
        <time>2013-08-07T15:19:16Z</time>
      </trkpt>
      <trkpt lat="43.00334" lon="-0.10312">
        <ele>465.9</ele>
        <time>2013-08-07T15:19:17Z</time>
      </trkpt>
      <trkpt lat="43.00357" lon="-0.10303">
        <ele>469.26</ele>
        <time>2013-08-07T15:19:25Z</time>
      </trkpt>
      <trkpt lat="43.00362" lon="-0.10303">
        <ele>469.26</ele>
        <time>2013-08-07T15:19:27Z</time>
      </trkpt>
      <trkpt lat="43.00364" lon="-0.10302">
        <ele>469.26</ele>
        <time>2013-08-07T15:19:28Z</time>
      </trkpt>
      <trkpt lat="43.00386" lon="-0.10281">
        <ele>469.26</ele>
        <time>2013-08-07T15:19:35Z</time>
      </trkpt>
      <trkpt lat="43.00394" lon="-0.10273">
        <ele>469.26</ele>
        <time>2013-08-07T15:19:37Z</time>
      </trkpt>
      <trkpt lat="43.00401" lon="-0.10266">
        <ele>468.78</ele>
        <time>2013-08-07T15:19:39Z</time>
      </trkpt>
      <trkpt lat="43.00405" lon="-0.10263">
        <ele>468.78</ele>
        <time>2013-08-07T15:19:40Z</time>
      </trkpt>
      <trkpt lat="43.00409" lon="-0.10261">
        <ele>468.3</ele>
        <time>2013-08-07T15:19:41Z</time>
      </trkpt>
      <trkpt lat="43.00413" lon="-0.10259">
        <ele>467.82</ele>
        <time>2013-08-07T15:19:42Z</time>
      </trkpt>
      <trkpt lat="43.00417" lon="-0.10255">
        <ele>468.3</ele>
        <time>2013-08-07T15:19:43Z</time>
      </trkpt>
      <trkpt lat="43.00421" lon="-0.1025">
        <ele>468.3</ele>
        <time>2013-08-07T15:19:44Z</time>
      </trkpt>
      <trkpt lat="43.00457" lon="-0.10211">
        <ele>468.3</ele>
        <time>2013-08-07T15:19:52Z</time>
      </trkpt>
      <trkpt lat="43.00462" lon="-0.10203">
        <ele>467.82</ele>
        <time>2013-08-07T15:19:54Z</time>
      </trkpt>
      <trkpt lat="43.00479" lon="-0.10183">
        <ele>468.3</ele>
        <time>2013-08-07T15:19:59Z</time>
      </trkpt>
      <trkpt lat="43.00484" lon="-0.10177">
        <ele>467.82</ele>
        <time>2013-08-07T15:20:00Z</time>
      </trkpt>
      <trkpt lat="43.00484" lon="-0.10171">
        <ele>467.82</ele>
        <time>2013-08-07T15:20:01Z</time>
      </trkpt>
      <trkpt lat="43.00484" lon="-0.10166">
        <ele>467.82</ele>
        <time>2013-08-07T15:20:02Z</time>
      </trkpt>
      <trkpt lat="43.00489" lon="-0.10162">
        <ele>467.82</ele>
        <time>2013-08-07T15:20:03Z</time>
      </trkpt>
      <trkpt lat="43.00521" lon="-0.10127">
        <ele>467.34</ele>
        <time>2013-08-07T15:20:11Z</time>
      </trkpt>
      <trkpt lat="43.00527" lon="-0.10125">
        <ele>466.86</ele>
        <time>2013-08-07T15:20:12Z</time>
      </trkpt>
      <trkpt lat="43.00532" lon="-0.10128">
        <ele>467.34</ele>
        <time>2013-08-07T15:20:13Z</time>
      </trkpt>
      <trkpt lat="43.00534" lon="-0.10133">
        <ele>467.34</ele>
        <time>2013-08-07T15:20:14Z</time>
      </trkpt>
      <trkpt lat="43.00536" lon="-0.10137">
        <ele>467.82</ele>
        <time>2013-08-07T15:20:15Z</time>
      </trkpt>
      <trkpt lat="43.00539" lon="-0.1015">
        <ele>467.82</ele>
        <time>2013-08-07T15:20:19Z</time>
      </trkpt>
      <trkpt lat="43.00542" lon="-0.10154">
        <ele>468.3</ele>
        <time>2013-08-07T15:20:20Z</time>
      </trkpt>
      <trkpt lat="43.00562" lon="-0.10167">
        <ele>470.22</ele>
        <time>2013-08-07T15:20:29Z</time>
      </trkpt>
      <trkpt lat="43.00578" lon="-0.10171">
        <ele>473.59</ele>
        <time>2013-08-07T15:20:37Z</time>
      </trkpt>
      <trkpt lat="43.00581" lon="-0.10172">
        <ele>473.11</ele>
        <time>2013-08-07T15:20:39Z</time>
      </trkpt>
      <trkpt lat="43.00583" lon="-0.10175">
        <ele>474.07</ele>
        <time>2013-08-07T15:20:43Z</time>
      </trkpt>
      <trkpt lat="43.00595" lon="-0.10184">
        <ele>474.55</ele>
        <time>2013-08-07T15:20:48Z</time>
      </trkpt>
      <trkpt lat="43.00605" lon="-0.10183">
        <ele>476.47</ele>
        <time>2013-08-07T15:20:52Z</time>
      </trkpt>
      <trkpt lat="43.00622" lon="-0.10203">
        <ele>479.84</ele>
        <time>2013-08-07T15:21:03Z</time>
      </trkpt>
      <trkpt lat="43.00635" lon="-0.10208">
        <ele>482.24</ele>
        <time>2013-08-07T15:21:10Z</time>
      </trkpt>
      <trkpt lat="43.00648" lon="-0.10235">
        <ele>486.08</ele>
        <time>2013-08-07T15:21:22Z</time>
      </trkpt>
      <trkpt lat="43.00668" lon="-0.10258">
        <ele>488.01</ele>
        <time>2013-08-07T15:21:34Z</time>
      </trkpt>
      <trkpt lat="43.00702" lon="-0.10264">
        <ele>487.53</ele>
        <time>2013-08-07T15:21:44Z</time>
      </trkpt>
      <trkpt lat="43.00725" lon="-0.10259">
        <ele>487.05</ele>
        <time>2013-08-07T15:21:49Z</time>
      </trkpt>
      <trkpt lat="43.00743" lon="-0.10248">
        <ele>486.08</ele>
        <time>2013-08-07T15:21:53Z</time>
      </trkpt>
      <trkpt lat="43.00769" lon="-0.10221">
        <ele>484.64</ele>
        <time>2013-08-07T15:21:58Z</time>
      </trkpt>
      <trkpt lat="43.0078" lon="-0.10214">
        <ele>484.16</ele>
        <time>2013-08-07T15:22:00Z</time>
      </trkpt>
      <trkpt lat="43.0079" lon="-0.10206">
        <ele>483.2</ele>
        <time>2013-08-07T15:22:02Z</time>
      </trkpt>
      <trkpt lat="43.00828" lon="-0.10192">
        <ele>479.84</ele>
        <time>2013-08-07T15:22:10Z</time>
      </trkpt>
      <trkpt lat="43.00839" lon="-0.10186">
        <ele>478.87</ele>
        <time>2013-08-07T15:22:13Z</time>
      </trkpt>
      <trkpt lat="43.00855" lon="-0.10178">
        <ele>477.91</ele>
        <time>2013-08-07T15:22:16Z</time>
      </trkpt>
      <trkpt lat="43.00878" lon="-0.10158">
        <ele>475.99</ele>
        <time>2013-08-07T15:22:20Z</time>
      </trkpt>
      <trkpt lat="43.00903" lon="-0.10121">
        <ele>471.66</ele>
        <time>2013-08-07T15:22:26Z</time>
      </trkpt>
      <trkpt lat="43.00918" lon="-0.10111">
        <ele>469.74</ele>
        <time>2013-08-07T15:22:29Z</time>
      </trkpt>
      <trkpt lat="43.00937" lon="-0.10113">
        <ele>471.18</ele>
        <time>2013-08-07T15:22:34Z</time>
      </trkpt>
      <trkpt lat="43.00961" lon="-0.10125">
        <ele>475.03</ele>
        <time>2013-08-07T15:22:46Z</time>
      </trkpt>
      <trkpt lat="43.00995" lon="-0.10122">
        <ele>474.55</ele>
        <time>2013-08-07T15:22:58Z</time>
      </trkpt>
      <trkpt lat="43.01007" lon="-0.10127">
        <ele>475.03</ele>
        <time>2013-08-07T15:23:01Z</time>
      </trkpt>
      <trkpt lat="43.01045" lon="-0.10132">
        <ele>474.55</ele>
        <time>2013-08-07T15:23:12Z</time>
      </trkpt>
      <trkpt lat="43.01067" lon="-0.10131">
        <ele>474.55</ele>
        <time>2013-08-07T15:23:17Z</time>
      </trkpt>
      <trkpt lat="43.01076" lon="-0.10133">
        <ele>474.55</ele>
        <time>2013-08-07T15:23:19Z</time>
      </trkpt>
      <trkpt lat="43.01084" lon="-0.10136">
        <ele>474.07</ele>
        <time>2013-08-07T15:23:21Z</time>
      </trkpt>
      <trkpt lat="43.0112" lon="-0.10153">
        <ele>475.99</ele>
        <time>2013-08-07T15:23:33Z</time>
      </trkpt>
      <trkpt lat="43.01126" lon="-0.10154">
        <ele>476.95</ele>
        <time>2013-08-07T15:23:37Z</time>
      </trkpt>
      <trkpt lat="43.0113" lon="-0.10154">
        <ele>477.91</ele>
        <time>2013-08-07T15:23:39Z</time>
      </trkpt>
      <trkpt lat="43.01133" lon="-0.10154">
        <ele>478.39</ele>
        <time>2013-08-07T15:23:41Z</time>
      </trkpt>
      <trkpt lat="43.01139" lon="-0.10153">
        <ele>479.84</ele>
        <time>2013-08-07T15:23:46Z</time>
      </trkpt>
      <trkpt lat="43.01145" lon="-0.10154">
        <ele>480.8</ele>
        <time>2013-08-07T15:23:50Z</time>
      </trkpt>
      <trkpt lat="43.01146" lon="-0.10155">
        <ele>481.28</ele>
        <time>2013-08-07T15:23:51Z</time>
      </trkpt>
      <trkpt lat="43.01149" lon="-0.10157">
        <ele>482.24</ele>
        <time>2013-08-07T15:23:53Z</time>
      </trkpt>
      <trkpt lat="43.01166" lon="-0.10151">
        <ele>484.64</ele>
        <time>2013-08-07T15:24:05Z</time>
      </trkpt>
      <trkpt lat="43.01174" lon="-0.10144">
        <ele>486.08</ele>
        <time>2013-08-07T15:24:13Z</time>
      </trkpt>
      <trkpt lat="43.01186" lon="-0.1014">
        <ele>489.45</ele>
        <time>2013-08-07T15:24:22Z</time>
      </trkpt>
      <trkpt lat="43.01198" lon="-0.10136">
        <ele>492.81</ele>
        <time>2013-08-07T15:24:30Z</time>
      </trkpt>
      <trkpt lat="43.01208" lon="-0.10132">
        <ele>495.22</ele>
        <time>2013-08-07T15:24:38Z</time>
      </trkpt>
      <trkpt lat="43.01219" lon="-0.10129">
        <ele>497.62</ele>
        <time>2013-08-07T15:24:44Z</time>
      </trkpt>
      <trkpt lat="43.01241" lon="-0.10122">
        <ele>499.54</ele>
        <time>2013-08-07T15:24:55Z</time>
      </trkpt>
      <trkpt lat="43.01253" lon="-0.10121">
        <ele>500.98</ele>
        <time>2013-08-07T15:25:01Z</time>
      </trkpt>
      <trkpt lat="43.01264" lon="-0.10118">
        <ele>503.39</ele>
        <time>2013-08-07T15:25:06Z</time>
      </trkpt>
      <trkpt lat="43.01291" lon="-0.10122">
        <ele>504.83</ele>
        <time>2013-08-07T15:25:17Z</time>
      </trkpt>
      <trkpt lat="43.01322" lon="-0.10127">
        <ele>505.79</ele>
        <time>2013-08-07T15:25:26Z</time>
      </trkpt>
      <trkpt lat="43.01338" lon="-0.10129">
        <ele>508.19</ele>
        <time>2013-08-07T15:25:32Z</time>
      </trkpt>
      <trkpt lat="43.0137" lon="-0.10139">
        <ele>506.27</ele>
        <time>2013-08-07T15:25:43Z</time>
      </trkpt>
      <trkpt lat="43.01384" lon="-0.10139">
        <ele>506.27</ele>
        <time>2013-08-07T15:25:47Z</time>
      </trkpt>
      <trkpt lat="43.01432" lon="-0.10113">
        <ele>506.75</ele>
        <time>2013-08-07T15:25:59Z</time>
      </trkpt>
      <trkpt lat="43.01453" lon="-0.10086">
        <ele>508.67</ele>
        <time>2013-08-07T15:26:08Z</time>
      </trkpt>
      <trkpt lat="43.01474" lon="-0.10065">
        <ele>511.08</ele>
        <time>2013-08-07T15:26:18Z</time>
      </trkpt>
      <trkpt lat="43.01494" lon="-0.10046">
        <ele>513.48</ele>
        <time>2013-08-07T15:26:28Z</time>
      </trkpt>
      <trkpt lat="43.01508" lon="-0.10035">
        <ele>515.88</ele>
        <time>2013-08-07T15:26:36Z</time>
      </trkpt>
      <trkpt lat="43.01514" lon="-0.10035">
        <ele>516.85</ele>
        <time>2013-08-07T15:26:41Z</time>
      </trkpt>
      <trkpt lat="43.01538" lon="-0.10023">
        <ele>519.25</ele>
        <time>2013-08-07T15:26:52Z</time>
      </trkpt>
      <trkpt lat="43.0154" lon="-0.10022">
        <ele>519.25</ele>
        <time>2013-08-07T15:26:53Z</time>
      </trkpt>
      <trkpt lat="43.01548" lon="-0.10019">
        <ele>521.17</ele>
        <time>2013-08-07T15:26:57Z</time>
      </trkpt>
      <trkpt lat="43.0155" lon="-0.10017">
        <ele>521.65</ele>
        <time>2013-08-07T15:27:00Z</time>
      </trkpt>
      <trkpt lat="43.01555" lon="-0.10017">
        <ele>522.13</ele>
        <time>2013-08-07T15:27:03Z</time>
      </trkpt>
      <trkpt lat="43.01571" lon="-0.10011">
        <ele>524.54</ele>
        <time>2013-08-07T15:27:12Z</time>
      </trkpt>
      <trkpt lat="43.01581" lon="-0.10007">
        <ele>525.02</ele>
        <time>2013-08-07T15:27:15Z</time>
      </trkpt>
      <trkpt lat="43.01588" lon="-0.10004">
        <ele>525.02</ele>
        <time>2013-08-07T15:27:18Z</time>
      </trkpt>
      <trkpt lat="43.01598" lon="-0.09998">
        <ele>526.46</ele>
        <time>2013-08-07T15:27:22Z</time>
      </trkpt>
      <trkpt lat="43.01618" lon="-0.09992">
        <ele>527.9</ele>
        <time>2013-08-07T15:27:30Z</time>
      </trkpt>
      <trkpt lat="43.01627" lon="-0.09991">
        <ele>528.38</ele>
        <time>2013-08-07T15:27:33Z</time>
      </trkpt>
      <trkpt lat="43.01648" lon="-0.0999">
        <ele>530.3</ele>
        <time>2013-08-07T15:27:41Z</time>
      </trkpt>
      <trkpt lat="43.01653" lon="-0.09992">
        <ele>530.79</ele>
        <time>2013-08-07T15:27:43Z</time>
      </trkpt>
      <trkpt lat="43.01676" lon="-0.10008">
        <ele>532.23</ele>
        <time>2013-08-07T15:27:54Z</time>
      </trkpt>
      <trkpt lat="43.01683" lon="-0.10016">
        <ele>533.19</ele>
        <time>2013-08-07T15:27:58Z</time>
      </trkpt>
      <trkpt lat="43.0169" lon="-0.10044">
        <ele>529.82</ele>
        <time>2013-08-07T15:28:06Z</time>
      </trkpt>
      <trkpt lat="43.0169" lon="-0.1005">
        <ele>529.82</ele>
        <time>2013-08-07T15:28:07Z</time>
      </trkpt>
      <trkpt lat="43.01696" lon="-0.10067">
        <ele>528.86</ele>
        <time>2013-08-07T15:28:10Z</time>
      </trkpt>
      <trkpt lat="43.01739" lon="-0.10074">
        <ele>527.9</ele>
        <time>2013-08-07T15:28:19Z</time>
      </trkpt>
      <trkpt lat="43.01772" lon="-0.10077">
        <ele>529.34</ele>
        <time>2013-08-07T15:28:29Z</time>
      </trkpt>
      <trkpt lat="43.018" lon="-0.10087">
        <ele>530.3</ele>
        <time>2013-08-07T15:28:37Z</time>
      </trkpt>
      <trkpt lat="43.01814" lon="-0.10096">
        <ele>530.3</ele>
        <time>2013-08-07T15:28:43Z</time>
      </trkpt>
      <trkpt lat="43.01834" lon="-0.10113">
        <ele>531.27</ele>
        <time>2013-08-07T15:28:56Z</time>
      </trkpt>
      <trkpt lat="43.01835" lon="-0.10113">
        <ele>531.75</ele>
        <time>2013-08-07T15:28:57Z</time>
      </trkpt>
      <trkpt lat="43.01841" lon="-0.10116">
        <ele>531.75</ele>
        <time>2013-08-07T15:29:00Z</time>
      </trkpt>
      <trkpt lat="43.01866" lon="-0.1012">
        <ele>530.79</ele>
        <time>2013-08-07T15:29:08Z</time>
      </trkpt>
      <trkpt lat="43.01905" lon="-0.10141">
        <ele>528.38</ele>
        <time>2013-08-07T15:29:18Z</time>
      </trkpt>
      <trkpt lat="43.01921" lon="-0.10156">
        <ele>526.94</ele>
        <time>2013-08-07T15:29:22Z</time>
      </trkpt>
      <trkpt lat="43.01963" lon="-0.10171">
        <ele>524.06</ele>
        <time>2013-08-07T15:29:32Z</time>
      </trkpt>
      <trkpt lat="43.01981" lon="-0.10162">
        <ele>520.69</ele>
        <time>2013-08-07T15:29:38Z</time>
      </trkpt>
      <trkpt lat="43.02001" lon="-0.10163">
        <ele>518.29</ele>
        <time>2013-08-07T15:29:42Z</time>
      </trkpt>
      <trkpt lat="43.02008" lon="-0.10163">
        <ele>517.33</ele>
        <time>2013-08-07T15:29:44Z</time>
      </trkpt>
      <trkpt lat="43.0203" lon="-0.1017">
        <ele>514.44</ele>
        <time>2013-08-07T15:29:49Z</time>
      </trkpt>
      <trkpt lat="43.02034" lon="-0.1017">
        <ele>513.48</ele>
        <time>2013-08-07T15:29:50Z</time>
      </trkpt>
      <trkpt lat="43.02048" lon="-0.10163">
        <ele>509.64</ele>
        <time>2013-08-07T15:29:54Z</time>
      </trkpt>
      <trkpt lat="43.02073" lon="-0.10179">
        <ele>507.71</ele>
        <time>2013-08-07T15:30:00Z</time>
      </trkpt>
      <trkpt lat="43.0208" lon="-0.10188">
        <ele>507.23</ele>
        <time>2013-08-07T15:30:02Z</time>
      </trkpt>
      <trkpt lat="43.02091" lon="-0.10204">
        <ele>506.27</ele>
        <time>2013-08-07T15:30:05Z</time>
      </trkpt>
      <trkpt lat="43.02113" lon="-0.10211">
        <ele>503.39</ele>
        <time>2013-08-07T15:30:09Z</time>
      </trkpt>
      <trkpt lat="43.02141" lon="-0.10206">
        <ele>504.35</ele>
        <time>2013-08-07T15:30:13Z</time>
      </trkpt>
      <trkpt lat="43.02159" lon="-0.10211">
        <ele>508.67</ele>
        <time>2013-08-07T15:30:21Z</time>
      </trkpt>
      <trkpt lat="43.02166" lon="-0.10219">
        <ele>509.16</ele>
        <time>2013-08-07T15:30:35Z</time>
      </trkpt>
      <trkpt lat="43.02168" lon="-0.10222">
        <ele>509.64</ele>
        <time>2013-08-07T15:30:37Z</time>
      </trkpt>
      <trkpt lat="43.02174" lon="-0.10229">
        <ele>510.12</ele>
        <time>2013-08-07T15:30:41Z</time>
      </trkpt>
      <trkpt lat="43.02203" lon="-0.10246">
        <ele>511.08</ele>
        <time>2013-08-07T15:30:55Z</time>
      </trkpt>
      <trkpt lat="43.02225" lon="-0.10274">
        <ele>511.56</ele>
        <time>2013-08-07T15:31:08Z</time>
      </trkpt>
      <trkpt lat="43.02249" lon="-0.10284">
        <ele>513.96</ele>
        <time>2013-08-07T15:31:17Z</time>
      </trkpt>
      <trkpt lat="43.02258" lon="-0.10288">
        <ele>515.4</ele>
        <time>2013-08-07T15:31:21Z</time>
      </trkpt>
      <trkpt lat="43.0228" lon="-0.10282">
        <ele>515.4</ele>
        <time>2013-08-07T15:31:28Z</time>
      </trkpt>
      <trkpt lat="43.02308" lon="-0.10276">
        <ele>514.44</ele>
        <time>2013-08-07T15:31:35Z</time>
      </trkpt>
      <trkpt lat="43.02311" lon="-0.10275">
        <ele>515.88</ele>
        <time>2013-08-07T15:31:36Z</time>
      </trkpt>
      <trkpt lat="43.02329" lon="-0.10268">
        <ele>515.4</ele>
        <time>2013-08-07T15:31:41Z</time>
      </trkpt>
      <trkpt lat="43.0237" lon="-0.10276">
        <ele>515.88</ele>
        <time>2013-08-07T15:31:52Z</time>
      </trkpt>
      <trkpt lat="43.02376" lon="-0.10277">
        <ele>514.92</ele>
        <time>2013-08-07T15:31:55Z</time>
      </trkpt>
      <trkpt lat="43.02384" lon="-0.10267">
        <ele>513</ele>
        <time>2013-08-07T15:31:57Z</time>
      </trkpt>
      <trkpt lat="43.02396" lon="-0.10255">
        <ele>511.08</ele>
        <time>2013-08-07T15:32:00Z</time>
      </trkpt>
      <trkpt lat="43.02398" lon="-0.10253">
        <ele>511.08</ele>
        <time>2013-08-07T15:32:01Z</time>
      </trkpt>
      <trkpt lat="43.02425" lon="-0.10223">
        <ele>508.19</ele>
        <time>2013-08-07T15:32:07Z</time>
      </trkpt>
      <trkpt lat="43.02428" lon="-0.10216">
        <ele>508.19</ele>
        <time>2013-08-07T15:32:08Z</time>
      </trkpt>
      <trkpt lat="43.02433" lon="-0.10203">
        <ele>506.75</ele>
        <time>2013-08-07T15:32:10Z</time>
      </trkpt>
      <trkpt lat="43.02435" lon="-0.10195">
        <ele>506.27</ele>
        <time>2013-08-07T15:32:11Z</time>
      </trkpt>
      <trkpt lat="43.02438" lon="-0.10189">
        <ele>505.79</ele>
        <time>2013-08-07T15:32:12Z</time>
      </trkpt>
      <trkpt lat="43.02456" lon="-0.10164">
        <ele>503.39</ele>
        <time>2013-08-07T15:32:18Z</time>
      </trkpt>
      <trkpt lat="43.02459" lon="-0.10158">
        <ele>502.91</ele>
        <time>2013-08-07T15:32:19Z</time>
      </trkpt>
      <trkpt lat="43.02464" lon="-0.10152">
        <ele>502.43</ele>
        <time>2013-08-07T15:32:20Z</time>
      </trkpt>
      <trkpt lat="43.02468" lon="-0.10145">
        <ele>501.95</ele>
        <time>2013-08-07T15:32:21Z</time>
      </trkpt>
      <trkpt lat="43.02473" lon="-0.10137">
        <ele>501.95</ele>
        <time>2013-08-07T15:32:22Z</time>
      </trkpt>
      <trkpt lat="43.02489" lon="-0.10117">
        <ele>500.98</ele>
        <time>2013-08-07T15:32:25Z</time>
      </trkpt>
      <trkpt lat="43.02503" lon="-0.101">
        <ele>499.06</ele>
        <time>2013-08-07T15:32:28Z</time>
      </trkpt>
      <trkpt lat="43.0251" lon="-0.10092">
        <ele>498.58</ele>
        <time>2013-08-07T15:32:29Z</time>
      </trkpt>
      <trkpt lat="43.02514" lon="-0.10085">
        <ele>499.54</ele>
        <time>2013-08-07T15:32:30Z</time>
      </trkpt>
      <trkpt lat="43.02526" lon="-0.10055">
        <ele>498.1</ele>
        <time>2013-08-07T15:32:37Z</time>
      </trkpt>
      <trkpt lat="43.02533" lon="-0.10029">
        <ele>496.66</ele>
        <time>2013-08-07T15:32:40Z</time>
      </trkpt>
      <trkpt lat="43.02533" lon="-0.1002">
        <ele>496.66</ele>
        <time>2013-08-07T15:32:41Z</time>
      </trkpt>
      <trkpt lat="43.02528" lon="-0.10002">
        <ele>496.66</ele>
        <time>2013-08-07T15:32:43Z</time>
      </trkpt>
      <trkpt lat="43.02522" lon="-0.0999">
        <ele>495.7</ele>
        <time>2013-08-07T15:32:45Z</time>
      </trkpt>
      <trkpt lat="43.02512" lon="-0.09969">
        <ele>494.74</ele>
        <time>2013-08-07T15:32:49Z</time>
      </trkpt>
      <trkpt lat="43.02508" lon="-0.09963">
        <ele>493.77</ele>
        <time>2013-08-07T15:32:50Z</time>
      </trkpt>
      <trkpt lat="43.02503" lon="-0.09954">
        <ele>493.29</ele>
        <time>2013-08-07T15:32:51Z</time>
      </trkpt>
      <trkpt lat="43.025" lon="-0.09946">
        <ele>493.29</ele>
        <time>2013-08-07T15:32:52Z</time>
      </trkpt>
      <trkpt lat="43.025" lon="-0.09939">
        <ele>493.29</ele>
        <time>2013-08-07T15:32:53Z</time>
      </trkpt>
      <trkpt lat="43.02499" lon="-0.09933">
        <ele>493.29</ele>
        <time>2013-08-07T15:32:54Z</time>
      </trkpt>
      <trkpt lat="43.02497" lon="-0.09925">
        <ele>492.81</ele>
        <time>2013-08-07T15:32:55Z</time>
      </trkpt>
      <trkpt lat="43.02498" lon="-0.09917">
        <ele>492.33</ele>
        <time>2013-08-07T15:32:56Z</time>
      </trkpt>
      <trkpt lat="43.02497" lon="-0.09908">
        <ele>491.37</ele>
        <time>2013-08-07T15:32:57Z</time>
      </trkpt>
      <trkpt lat="43.02495" lon="-0.099">
        <ele>489.93</ele>
        <time>2013-08-07T15:32:58Z</time>
      </trkpt>
      <trkpt lat="43.02493" lon="-0.09893">
        <ele>489.45</ele>
        <time>2013-08-07T15:32:59Z</time>
      </trkpt>
      <trkpt lat="43.02491" lon="-0.09888">
        <ele>488.97</ele>
        <time>2013-08-07T15:33:00Z</time>
      </trkpt>
      <trkpt lat="43.02494" lon="-0.09884">
        <ele>488.49</ele>
        <time>2013-08-07T15:33:01Z</time>
      </trkpt>
      <trkpt lat="43.02495" lon="-0.09877">
        <ele>487.53</ele>
        <time>2013-08-07T15:33:03Z</time>
      </trkpt>
      <trkpt lat="43.02496" lon="-0.09873">
        <ele>487.53</ele>
        <time>2013-08-07T15:33:04Z</time>
      </trkpt>
      <trkpt lat="43.02498" lon="-0.09867">
        <ele>487.05</ele>
        <time>2013-08-07T15:33:05Z</time>
      </trkpt>
      <trkpt lat="43.02511" lon="-0.0984">
        <ele>482.72</ele>
        <time>2013-08-07T15:33:09Z</time>
      </trkpt>
      <trkpt lat="43.02515" lon="-0.09834">
        <ele>481.28</ele>
        <time>2013-08-07T15:33:10Z</time>
      </trkpt>
      <trkpt lat="43.02516" lon="-0.09827">
        <ele>480.8</ele>
        <time>2013-08-07T15:33:11Z</time>
      </trkpt>
      <trkpt lat="43.02515" lon="-0.09822">
        <ele>479.84</ele>
        <time>2013-08-07T15:33:12Z</time>
      </trkpt>
      <trkpt lat="43.02515" lon="-0.09819">
        <ele>478.87</ele>
        <time>2013-08-07T15:33:13Z</time>
      </trkpt>
      <trkpt lat="43.02497" lon="-0.09801">
        <ele>475.99</ele>
        <time>2013-08-07T15:33:17Z</time>
      </trkpt>
      <trkpt lat="43.02483" lon="-0.0979">
        <ele>473.11</ele>
        <time>2013-08-07T15:33:19Z</time>
      </trkpt>
      <trkpt lat="43.02466" lon="-0.09782">
        <ele>470.7</ele>
        <time>2013-08-07T15:33:21Z</time>
      </trkpt>
      <trkpt lat="43.02463" lon="-0.09781">
        <ele>471.18</ele>
        <time>2013-08-07T15:33:22Z</time>
      </trkpt>
      <trkpt lat="43.0243" lon="-0.09791">
        <ele>467.82</ele>
        <time>2013-08-07T15:33:26Z</time>
      </trkpt>
      <trkpt lat="43.02407" lon="-0.098">
        <ele>465.9</ele>
        <time>2013-08-07T15:33:28Z</time>
      </trkpt>
      <trkpt lat="43.02381" lon="-0.09816">
        <ele>461.57</ele>
        <time>2013-08-07T15:33:32Z</time>
      </trkpt>
      <trkpt lat="43.02362" lon="-0.09819">
        <ele>457.72</ele>
        <time>2013-08-07T15:33:37Z</time>
      </trkpt>
      <trkpt lat="43.02363" lon="-0.09809">
        <ele>455.32</ele>
        <time>2013-08-07T15:33:41Z</time>
      </trkpt>
      <trkpt lat="43.02365" lon="-0.09799">
        <ele>453.88</ele>
        <time>2013-08-07T15:33:43Z</time>
      </trkpt>
      <trkpt lat="43.02365" lon="-0.09796">
        <ele>453.4</ele>
        <time>2013-08-07T15:33:44Z</time>
      </trkpt>
      <trkpt lat="43.02363" lon="-0.09793">
        <ele>451.96</ele>
        <time>2013-08-07T15:33:46Z</time>
      </trkpt>
      <trkpt lat="43.02356" lon="-0.09789">
        <ele>450.52</ele>
        <time>2013-08-07T15:33:48Z</time>
      </trkpt>
      <trkpt lat="43.02346" lon="-0.09785">
        <ele>449.55</ele>
        <time>2013-08-07T15:33:51Z</time>
      </trkpt>
      <trkpt lat="43.0234" lon="-0.09777">
        <ele>448.11</ele>
        <time>2013-08-07T15:33:56Z</time>
      </trkpt>
      <trkpt lat="43.02342" lon="-0.09759">
        <ele>445.71</ele>
        <time>2013-08-07T15:34:03Z</time>
      </trkpt>
      <trkpt lat="43.0234" lon="-0.09749">
        <ele>445.23</ele>
        <time>2013-08-07T15:34:05Z</time>
      </trkpt>
      <trkpt lat="43.02336" lon="-0.09738">
        <ele>444.75</ele>
        <time>2013-08-07T15:34:07Z</time>
      </trkpt>
      <trkpt lat="43.02332" lon="-0.09709">
        <ele>443.31</ele>
        <time>2013-08-07T15:34:11Z</time>
      </trkpt>
      <trkpt lat="43.02326" lon="-0.09682">
        <ele>441.38</ele>
        <time>2013-08-07T15:34:16Z</time>
      </trkpt>
      <trkpt lat="43.0232" lon="-0.09669">
        <ele>441.86</ele>
        <time>2013-08-07T15:34:21Z</time>
      </trkpt>
      <trkpt lat="43.02349" lon="-0.0965">
        <ele>442.82</ele>
        <time>2013-08-07T15:34:30Z</time>
      </trkpt>
      <trkpt lat="43.02398" lon="-0.09596">
        <ele>441.38</ele>
        <time>2013-08-07T15:34:41Z</time>
      </trkpt>
      <trkpt lat="43.0242" lon="-0.0957">
        <ele>441.38</ele>
        <time>2013-08-07T15:34:46Z</time>
      </trkpt>
      <trkpt lat="43.0247" lon="-0.095">
        <ele>440.9</ele>
        <time>2013-08-07T15:34:59Z</time>
      </trkpt>
      <trkpt lat="43.02486" lon="-0.09479">
        <ele>441.86</ele>
        <time>2013-08-07T15:35:03Z</time>
      </trkpt>
      <trkpt lat="43.02536" lon="-0.09425">
        <ele>441.86</ele>
        <time>2013-08-07T15:35:17Z</time>
      </trkpt>
      <trkpt lat="43.0255" lon="-0.09411">
        <ele>442.34</ele>
        <time>2013-08-07T15:35:21Z</time>
      </trkpt>
      <trkpt lat="43.02611" lon="-0.09362">
        <ele>443.31</ele>
        <time>2013-08-07T15:35:36Z</time>
      </trkpt>
      <trkpt lat="43.02619" lon="-0.09354">
        <ele>442.82</ele>
        <time>2013-08-07T15:35:38Z</time>
      </trkpt>
      <trkpt lat="43.02682" lon="-0.09309">
        <ele>443.31</ele>
        <time>2013-08-07T15:35:52Z</time>
      </trkpt>
      <trkpt lat="43.02686" lon="-0.09306">
        <ele>443.31</ele>
        <time>2013-08-07T15:35:53Z</time>
      </trkpt>
      <trkpt lat="43.02746" lon="-0.09262">
        <ele>443.31</ele>
        <time>2013-08-07T15:36:06Z</time>
      </trkpt>
      <trkpt lat="43.02753" lon="-0.09236">
        <ele>442.82</ele>
        <time>2013-08-07T15:36:10Z</time>
      </trkpt>
      <trkpt lat="43.02748" lon="-0.09215">
        <ele>441.86</ele>
        <time>2013-08-07T15:36:13Z</time>
      </trkpt>
      <trkpt lat="43.02703" lon="-0.09167">
        <ele>443.31</ele>
        <time>2013-08-07T15:36:22Z</time>
      </trkpt>
      <trkpt lat="43.02683" lon="-0.09145">
        <ele>439.46</ele>
        <time>2013-08-07T15:36:26Z</time>
      </trkpt>
      <trkpt lat="43.02678" lon="-0.09138">
        <ele>438.98</ele>
        <time>2013-08-07T15:36:27Z</time>
      </trkpt>
      <trkpt lat="43.02666" lon="-0.09114">
        <ele>439.94</ele>
        <time>2013-08-07T15:36:30Z</time>
      </trkpt>
      <trkpt lat="43.02655" lon="-0.09055">
        <ele>439.46</ele>
        <time>2013-08-07T15:36:36Z</time>
      </trkpt>
      <trkpt lat="43.02647" lon="-0.09027">
        <ele>439.46</ele>
        <time>2013-08-07T15:36:39Z</time>
      </trkpt>
      <trkpt lat="43.02639" lon="-0.08999">
        <ele>437.54</ele>
        <time>2013-08-07T15:36:42Z</time>
      </trkpt>
      <trkpt lat="43.02632" lon="-0.08981">
        <ele>437.54</ele>
        <time>2013-08-07T15:36:44Z</time>
      </trkpt>
      <trkpt lat="43.02607" lon="-0.08947">
        <ele>436.58</ele>
        <time>2013-08-07T15:36:49Z</time>
      </trkpt>
      <trkpt lat="43.02531" lon="-0.08889">
        <ele>435.13</ele>
        <time>2013-08-07T15:37:01Z</time>
      </trkpt>
      <trkpt lat="43.02514" lon="-0.0887">
        <ele>434.65</ele>
        <time>2013-08-07T15:37:04Z</time>
      </trkpt>
      <trkpt lat="43.02494" lon="-0.0882">
        <ele>434.17</ele>
        <time>2013-08-07T15:37:10Z</time>
      </trkpt>
      <trkpt lat="43.02491" lon="-0.08792">
        <ele>434.17</ele>
        <time>2013-08-07T15:37:13Z</time>
      </trkpt>
      <trkpt lat="43.02462" lon="-0.08729">
        <ele>432.25</ele>
        <time>2013-08-07T15:37:21Z</time>
      </trkpt>
      <trkpt lat="43.02436" lon="-0.08721">
        <ele>430.33</ele>
        <time>2013-08-07T15:37:25Z</time>
      </trkpt>
      <trkpt lat="43.02422" lon="-0.08725">
        <ele>429.85</ele>
        <time>2013-08-07T15:37:27Z</time>
      </trkpt>
      <trkpt lat="43.02397" lon="-0.08708">
        <ele>430.33</ele>
        <time>2013-08-07T15:37:32Z</time>
      </trkpt>
      <trkpt lat="43.0239" lon="-0.08695">
        <ele>429.85</ele>
        <time>2013-08-07T15:37:34Z</time>
      </trkpt>
      <trkpt lat="43.0238" lon="-0.08676">
        <ele>429.85</ele>
        <time>2013-08-07T15:37:37Z</time>
      </trkpt>
      <trkpt lat="43.02372" lon="-0.08641">
        <ele>429.85</ele>
        <time>2013-08-07T15:37:42Z</time>
      </trkpt>
      <trkpt lat="43.02375" lon="-0.08617">
        <ele>429.37</ele>
        <time>2013-08-07T15:37:45Z</time>
      </trkpt>
      <trkpt lat="43.02389" lon="-0.08546">
        <ele>429.37</ele>
        <time>2013-08-07T15:37:54Z</time>
      </trkpt>
      <trkpt lat="43.02405" lon="-0.08452">
        <ele>428.4</ele>
        <time>2013-08-07T15:38:06Z</time>
      </trkpt>
      <trkpt lat="43.02431" lon="-0.08425">
        <ele>427.44</ele>
        <time>2013-08-07T15:38:12Z</time>
      </trkpt>
      <trkpt lat="43.02445" lon="-0.08396">
        <ele>424.08</ele>
        <time>2013-08-07T15:38:18Z</time>
      </trkpt>
      <trkpt lat="43.02441" lon="-0.08368">
        <ele>423.12</ele>
        <time>2013-08-07T15:38:32Z</time>
      </trkpt>
      <trkpt lat="43.02438" lon="-0.0836">
        <ele>422.16</ele>
        <time>2013-08-07T15:38:47Z</time>
      </trkpt>
      <trkpt lat="43.02437" lon="-0.08359">
        <ele>424.08</ele>
        <time>2013-08-07T15:38:50Z</time>
      </trkpt>
      <trkpt lat="43.02436" lon="-0.08357">
        <ele>418.79</ele>
        <time>2013-08-07T15:38:56Z</time>
      </trkpt>
      <trkpt lat="43.02437" lon="-0.08357">
        <ele>418.79</ele>
        <time>2013-08-07T15:38:57Z</time>
      </trkpt>
      <trkpt lat="43.02436" lon="-0.08356">
        <ele>422.16</ele>
        <time>2013-08-07T15:38:59Z</time>
      </trkpt>
      <trkpt lat="43.0243" lon="-0.08346">
        <ele>422.64</ele>
        <time>2013-08-07T15:39:26Z</time>
      </trkpt>
      <trkpt lat="43.02427" lon="-0.08345">
        <ele>422.16</ele>
        <time>2013-08-07T15:39:52Z</time>
      </trkpt>
      <trkpt lat="43.02434" lon="-0.08342">
        <ele>421.68</ele>
        <time>2013-08-07T15:40:16Z</time>
      </trkpt>
      <trkpt lat="43.02426" lon="-0.08322">
        <ele>401.97</ele>
        <time>2013-08-07T15:41:43Z</time>
      </trkpt>
      <trkpt lat="43.02437" lon="-0.08326">
        <ele>402.45</ele>
        <time>2013-08-07T15:42:05Z</time>
      </trkpt>
      <trkpt lat="43.02437" lon="-0.08327">
        <ele>402.45</ele>
        <time>2013-08-07T15:42:29Z</time>
      </trkpt>
      <trkpt lat="43.02437" lon="-0.08329">
        <ele>405.81</ele>
        <time>2013-08-07T15:42:34Z</time>
      </trkpt>
      <trkpt lat="43.02437" lon="-0.0833">
        <ele>402.93</ele>
        <time>2013-08-07T15:42:35Z</time>
      </trkpt>
      <trkpt lat="43.02438" lon="-0.08333">
        <ele>398.6</ele>
        <time>2013-08-07T15:42:38Z</time>
      </trkpt>
      <trkpt lat="43.02438" lon="-0.08334">
        <ele>403.89</ele>
        <time>2013-08-07T15:42:39Z</time>
      </trkpt>
      <trkpt lat="43.02437" lon="-0.08338">
        <ele>398.6</ele>
        <time>2013-08-07T15:42:44Z</time>
      </trkpt>
      <trkpt lat="43.02437" lon="-0.08338">
        <ele>403.41</ele>
        <time>2013-08-07T15:42:45Z</time>
      </trkpt>
      <trkpt lat="43.02435" lon="-0.08342">
        <ele>401.97</ele>
        <time>2013-08-07T15:43:08Z</time>
      </trkpt>
      <trkpt lat="43.02433" lon="-0.08335">
        <ele>401.97</ele>
        <time>2013-08-07T15:43:26Z</time>
      </trkpt>
      <trkpt lat="43.02434" lon="-0.08335">
        <ele>396.68</ele>
        <time>2013-08-07T15:43:32Z</time>
      </trkpt>
      <trkpt lat="43.02434" lon="-0.08335">
        <ele>396.68</ele>
        <time>2013-08-07T15:43:33Z</time>
      </trkpt>
      <trkpt lat="43.02434" lon="-0.08335">
        <ele>402.45</ele>
        <time>2013-08-07T15:43:34Z</time>
      </trkpt>
      <trkpt lat="43.02434" lon="-0.08335">
        <ele>401.97</ele>
        <time>2013-08-07T15:43:35Z</time>
      </trkpt>
      <trkpt lat="43.02434" lon="-0.08338">
        <ele>401.97</ele>
        <time>2013-08-07T15:43:47Z</time>
      </trkpt>
      <trkpt lat="43.02427" lon="-0.08357">
        <ele>402.45</ele>
        <time>2013-08-07T15:43:54Z</time>
      </trkpt>
      <trkpt lat="43.02422" lon="-0.0836">
        <ele>403.41</ele>
        <time>2013-08-07T15:43:57Z</time>
      </trkpt>
      <trkpt lat="43.02416" lon="-0.08365">
        <ele>403.89</ele>
        <time>2013-08-07T15:43:59Z</time>
      </trkpt>
      <trkpt lat="43.02404" lon="-0.0837">
        <ele>405.81</ele>
        <time>2013-08-07T15:44:02Z</time>
      </trkpt>
      <trkpt lat="43.02401" lon="-0.08372">
        <ele>406.29</ele>
        <time>2013-08-07T15:44:03Z</time>
      </trkpt>
      <trkpt lat="43.02378" lon="-0.08363">
        <ele>408.22</ele>
        <time>2013-08-07T15:44:09Z</time>
      </trkpt>
      <trkpt lat="43.0237" lon="-0.08357">
        <ele>408.7</ele>
        <time>2013-08-07T15:44:11Z</time>
      </trkpt>
      <trkpt lat="43.02355" lon="-0.08348">
        <ele>409.66</ele>
        <time>2013-08-07T15:44:15Z</time>
      </trkpt>
      <trkpt lat="43.02333" lon="-0.08338">
        <ele>410.62</ele>
        <time>2013-08-07T15:44:21Z</time>
      </trkpt>
      <trkpt lat="43.02294" lon="-0.08327">
        <ele>412.06</ele>
        <time>2013-08-07T15:44:31Z</time>
      </trkpt>
      <trkpt lat="43.02283" lon="-0.08324">
        <ele>413.5</ele>
        <time>2013-08-07T15:44:34Z</time>
      </trkpt>
      <trkpt lat="43.0227" lon="-0.08318">
        <ele>413.98</ele>
        <time>2013-08-07T15:44:38Z</time>
      </trkpt>
      <trkpt lat="43.0225" lon="-0.08317">
        <ele>414.95</ele>
        <time>2013-08-07T15:44:44Z</time>
      </trkpt>
      <trkpt lat="43.02237" lon="-0.08322">
        <ele>417.83</ele>
        <time>2013-08-07T15:44:50Z</time>
      </trkpt>
      <trkpt lat="43.02224" lon="-0.08311">
        <ele>421.19</ele>
        <time>2013-08-07T15:44:58Z</time>
      </trkpt>
      <trkpt lat="43.02225" lon="-0.08307">
        <ele>421.19</ele>
        <time>2013-08-07T15:44:59Z</time>
      </trkpt>
      <trkpt lat="43.02221" lon="-0.08275">
        <ele>422.16</ele>
        <time>2013-08-07T15:45:07Z</time>
      </trkpt>
      <trkpt lat="43.02223" lon="-0.08261">
        <ele>422.64</ele>
        <time>2013-08-07T15:45:10Z</time>
      </trkpt>
      <trkpt lat="43.02219" lon="-0.08231">
        <ele>422.64</ele>
        <time>2013-08-07T15:45:17Z</time>
      </trkpt>
      <trkpt lat="43.02217" lon="-0.08224">
        <ele>422.64</ele>
        <time>2013-08-07T15:45:19Z</time>
      </trkpt>
      <trkpt lat="43.0221" lon="-0.0822">
        <ele>421.68</ele>
        <time>2013-08-07T15:45:21Z</time>
      </trkpt>
      <trkpt lat="43.02186" lon="-0.08225">
        <ele>420.71</ele>
        <time>2013-08-07T15:45:32Z</time>
      </trkpt>
      <trkpt lat="43.0218" lon="-0.0823">
        <ele>421.19</ele>
        <time>2013-08-07T15:45:35Z</time>
      </trkpt>
      <trkpt lat="43.02173" lon="-0.08235">
        <ele>420.71</ele>
        <time>2013-08-07T15:45:38Z</time>
      </trkpt>
      <trkpt lat="43.02156" lon="-0.08241">
        <ele>421.19</ele>
        <time>2013-08-07T15:45:44Z</time>
      </trkpt>
      <trkpt lat="43.02145" lon="-0.08244">
        <ele>421.19</ele>
        <time>2013-08-07T15:45:48Z</time>
      </trkpt>
      <trkpt lat="43.02116" lon="-0.08247">
        <ele>419.75</ele>
        <time>2013-08-07T15:45:56Z</time>
      </trkpt>
      <trkpt lat="43.02101" lon="-0.08261">
        <ele>419.75</ele>
        <time>2013-08-07T15:46:03Z</time>
      </trkpt>
      <trkpt lat="43.02091" lon="-0.08288">
        <ele>418.79</ele>
        <time>2013-08-07T15:46:12Z</time>
      </trkpt>
      <trkpt lat="43.02089" lon="-0.0829">
        <ele>418.79</ele>
        <time>2013-08-07T15:46:14Z</time>
      </trkpt>
      <trkpt lat="43.02072" lon="-0.08293">
        <ele>420.23</ele>
        <time>2013-08-07T15:46:22Z</time>
      </trkpt>
      <trkpt lat="43.0207" lon="-0.08292">
        <ele>420.71</ele>
        <time>2013-08-07T15:46:26Z</time>
      </trkpt>
      <trkpt lat="43.02065" lon="-0.08287">
        <ele>421.19</ele>
        <time>2013-08-07T15:46:30Z</time>
      </trkpt>
      <trkpt lat="43.02064" lon="-0.08283">
        <ele>421.68</ele>
        <time>2013-08-07T15:46:32Z</time>
      </trkpt>
      <trkpt lat="43.0206" lon="-0.08275">
        <ele>422.64</ele>
        <time>2013-08-07T15:46:36Z</time>
      </trkpt>
      <trkpt lat="43.02054" lon="-0.08269">
        <ele>423.12</ele>
        <time>2013-08-07T15:46:41Z</time>
      </trkpt>
      <trkpt lat="43.02043" lon="-0.08264">
        <ele>425.04</ele>
        <time>2013-08-07T15:46:48Z</time>
      </trkpt>
      <trkpt lat="43.02038" lon="-0.08268">
        <ele>426.96</ele>
        <time>2013-08-07T15:46:53Z</time>
      </trkpt>
      <trkpt lat="43.02034" lon="-0.08279">
        <ele>427.92</ele>
        <time>2013-08-07T15:47:00Z</time>
      </trkpt>
      <trkpt lat="43.02018" lon="-0.08298">
        <ele>428.89</ele>
        <time>2013-08-07T15:47:09Z</time>
      </trkpt>
      <trkpt lat="43.02008" lon="-0.08305">
        <ele>430.33</ele>
        <time>2013-08-07T15:47:14Z</time>
      </trkpt>
      <trkpt lat="43.0199" lon="-0.08306">
        <ele>428.89</ele>
        <time>2013-08-07T15:47:19Z</time>
      </trkpt>
      <trkpt lat="43.01972" lon="-0.0831">
        <ele>426.96</ele>
        <time>2013-08-07T15:47:23Z</time>
      </trkpt>
      <trkpt lat="43.01969" lon="-0.08314">
        <ele>427.44</ele>
        <time>2013-08-07T15:47:24Z</time>
      </trkpt>
      <trkpt lat="43.0195" lon="-0.08343">
        <ele>426.96</ele>
        <time>2013-08-07T15:47:32Z</time>
      </trkpt>
      <trkpt lat="43.01933" lon="-0.08349">
        <ele>429.37</ele>
        <time>2013-08-07T15:47:39Z</time>
      </trkpt>
      <trkpt lat="43.01913" lon="-0.08357">
        <ele>429.85</ele>
        <time>2013-08-07T15:47:46Z</time>
      </trkpt>
      <trkpt lat="43.01907" lon="-0.08368">
        <ele>429.85</ele>
        <time>2013-08-07T15:47:49Z</time>
      </trkpt>
      <trkpt lat="43.01895" lon="-0.08374">
        <ele>431.29</ele>
        <time>2013-08-07T15:47:53Z</time>
      </trkpt>
      <trkpt lat="43.01889" lon="-0.08376">
        <ele>430.81</ele>
        <time>2013-08-07T15:47:55Z</time>
      </trkpt>
      <trkpt lat="43.01878" lon="-0.08377">
        <ele>428.4</ele>
        <time>2013-08-07T15:47:59Z</time>
      </trkpt>
      <trkpt lat="43.01871" lon="-0.08377">
        <ele>426.48</ele>
        <time>2013-08-07T15:48:01Z</time>
      </trkpt>
      <trkpt lat="43.01863" lon="-0.08381">
        <ele>426.96</ele>
        <time>2013-08-07T15:48:03Z</time>
      </trkpt>
      <trkpt lat="43.0184" lon="-0.08395">
        <ele>427.92</ele>
        <time>2013-08-07T15:48:09Z</time>
      </trkpt>
      <trkpt lat="43.01819" lon="-0.08406">
        <ele>430.81</ele>
        <time>2013-08-07T15:48:17Z</time>
      </trkpt>
      <trkpt lat="43.0181" lon="-0.0841">
        <ele>430.81</ele>
        <time>2013-08-07T15:48:20Z</time>
      </trkpt>
      <trkpt lat="43.01786" lon="-0.08429">
        <ele>433.21</ele>
        <time>2013-08-07T15:48:29Z</time>
      </trkpt>
      <trkpt lat="43.01764" lon="-0.08442">
        <ele>433.69</ele>
        <time>2013-08-07T15:48:38Z</time>
      </trkpt>
      <trkpt lat="43.01736" lon="-0.08458">
        <ele>431.77</ele>
        <time>2013-08-07T15:48:47Z</time>
      </trkpt>
      <trkpt lat="43.0172" lon="-0.08463">
        <ele>430.33</ele>
        <time>2013-08-07T15:48:51Z</time>
      </trkpt>
      <trkpt lat="43.01702" lon="-0.08467">
        <ele>430.33</ele>
        <time>2013-08-07T15:48:56Z</time>
      </trkpt>
      <trkpt lat="43.01673" lon="-0.08463">
        <ele>429.37</ele>
        <time>2013-08-07T15:49:05Z</time>
      </trkpt>
      <trkpt lat="43.01664" lon="-0.08463">
        <ele>429.37</ele>
        <time>2013-08-07T15:49:08Z</time>
      </trkpt>
      <trkpt lat="43.01661" lon="-0.08459">
        <ele>431.77</ele>
        <time>2013-08-07T15:49:12Z</time>
      </trkpt>
      <trkpt lat="43.0166" lon="-0.08457">
        <ele>433.21</ele>
        <time>2013-08-07T15:49:20Z</time>
      </trkpt>
      <trkpt lat="43.0166" lon="-0.08457">
        <ele>434.17</ele>
        <time>2013-08-07T15:49:21Z</time>
      </trkpt>
      <trkpt lat="43.01665" lon="-0.08456">
        <ele>436.1</ele>
        <time>2013-08-07T15:49:27Z</time>
      </trkpt>
      <trkpt lat="43.01667" lon="-0.08453">
        <ele>437.54</ele>
        <time>2013-08-07T15:49:31Z</time>
      </trkpt>
      <trkpt lat="43.01666" lon="-0.0845">
        <ele>438.5</ele>
        <time>2013-08-07T15:49:34Z</time>
      </trkpt>
      <trkpt lat="43.01663" lon="-0.08449">
        <ele>438.5</ele>
        <time>2013-08-07T15:49:36Z</time>
      </trkpt>
      <trkpt lat="43.01652" lon="-0.08441">
        <ele>441.38</ele>
        <time>2013-08-07T15:49:47Z</time>
      </trkpt>
      <trkpt lat="43.01644" lon="-0.0843">
        <ele>443.79</ele>
        <time>2013-08-07T15:49:54Z</time>
      </trkpt>
      <trkpt lat="43.01642" lon="-0.08426">
        <ele>444.75</ele>
        <time>2013-08-07T15:49:57Z</time>
      </trkpt>
      <trkpt lat="43.01642" lon="-0.08424">
        <ele>445.23</ele>
        <time>2013-08-07T15:49:58Z</time>
      </trkpt>
      <trkpt lat="43.01641" lon="-0.08417">
        <ele>447.15</ele>
        <time>2013-08-07T15:50:03Z</time>
      </trkpt>
      <trkpt lat="43.01637" lon="-0.08403">
        <ele>449.07</ele>
        <time>2013-08-07T15:50:15Z</time>
      </trkpt>
      <trkpt lat="43.01633" lon="-0.08405">
        <ele>451</ele>
        <time>2013-08-07T15:50:20Z</time>
      </trkpt>
      <trkpt lat="43.0163" lon="-0.08406">
        <ele>451</ele>
        <time>2013-08-07T15:50:23Z</time>
      </trkpt>
      <trkpt lat="43.01624" lon="-0.08405">
        <ele>452.44</ele>
        <time>2013-08-07T15:50:28Z</time>
      </trkpt>
      <trkpt lat="43.0161" lon="-0.08404">
        <ele>454.36</ele>
        <time>2013-08-07T15:50:39Z</time>
      </trkpt>
      <trkpt lat="43.01604" lon="-0.08403">
        <ele>455.32</ele>
        <time>2013-08-07T15:50:44Z</time>
      </trkpt>
      <trkpt lat="43.01583" lon="-0.084">
        <ele>457.24</ele>
        <time>2013-08-07T15:50:57Z</time>
      </trkpt>
      <trkpt lat="43.01566" lon="-0.08404">
        <ele>460.13</ele>
        <time>2013-08-07T15:51:08Z</time>
      </trkpt>
      <trkpt lat="43.01553" lon="-0.08407">
        <ele>463.49</ele>
        <time>2013-08-07T15:51:19Z</time>
      </trkpt>
      <trkpt lat="43.01553" lon="-0.08407">
        <ele>463.97</ele>
        <time>2013-08-07T15:51:20Z</time>
      </trkpt>
      <trkpt lat="43.01546" lon="-0.08407">
        <ele>463.97</ele>
        <time>2013-08-07T15:51:23Z</time>
      </trkpt>
      <trkpt lat="43.01524" lon="-0.08403">
        <ele>465.9</ele>
        <time>2013-08-07T15:51:33Z</time>
      </trkpt>
      <trkpt lat="43.01496" lon="-0.08392">
        <ele>467.82</ele>
        <time>2013-08-07T15:51:44Z</time>
      </trkpt>
      <trkpt lat="43.01485" lon="-0.08385">
        <ele>468.3</ele>
        <time>2013-08-07T15:51:50Z</time>
      </trkpt>
      <trkpt lat="43.01466" lon="-0.08378">
        <ele>471.18</ele>
        <time>2013-08-07T15:51:58Z</time>
      </trkpt>
      <trkpt lat="43.01454" lon="-0.08371">
        <ele>472.63</ele>
        <time>2013-08-07T15:52:04Z</time>
      </trkpt>
      <trkpt lat="43.01446" lon="-0.08368">
        <ele>473.59</ele>
        <time>2013-08-07T15:52:07Z</time>
      </trkpt>
      <trkpt lat="43.01435" lon="-0.08357">
        <ele>474.55</ele>
        <time>2013-08-07T15:52:14Z</time>
      </trkpt>
      <trkpt lat="43.01428" lon="-0.08354">
        <ele>475.03</ele>
        <time>2013-08-07T15:52:18Z</time>
      </trkpt>
      <trkpt lat="43.01416" lon="-0.08335">
        <ele>477.43</ele>
        <time>2013-08-07T15:52:28Z</time>
      </trkpt>
      <trkpt lat="43.01405" lon="-0.08322">
        <ele>479.35</ele>
        <time>2013-08-07T15:52:36Z</time>
      </trkpt>
      <trkpt lat="43.01387" lon="-0.08306">
        <ele>482.72</ele>
        <time>2013-08-07T15:52:49Z</time>
      </trkpt>
      <trkpt lat="43.01371" lon="-0.08295">
        <ele>485.12</ele>
        <time>2013-08-07T15:52:58Z</time>
      </trkpt>
      <trkpt lat="43.01367" lon="-0.08291">
        <ele>486.08</ele>
        <time>2013-08-07T15:53:02Z</time>
      </trkpt>
      <trkpt lat="43.01364" lon="-0.0828">
        <ele>488.01</ele>
        <time>2013-08-07T15:53:09Z</time>
      </trkpt>
      <trkpt lat="43.01363" lon="-0.08277">
        <ele>488.49</ele>
        <time>2013-08-07T15:53:11Z</time>
      </trkpt>
      <trkpt lat="43.0136" lon="-0.08264">
        <ele>490.41</ele>
        <time>2013-08-07T15:53:18Z</time>
      </trkpt>
      <trkpt lat="43.01351" lon="-0.08247">
        <ele>491.85</ele>
        <time>2013-08-07T15:53:27Z</time>
      </trkpt>
      <trkpt lat="43.0134" lon="-0.08227">
        <ele>493.77</ele>
        <time>2013-08-07T15:53:38Z</time>
      </trkpt>
      <trkpt lat="43.01332" lon="-0.08209">
        <ele>496.66</ele>
        <time>2013-08-07T15:53:49Z</time>
      </trkpt>
      <trkpt lat="43.01331" lon="-0.08205">
        <ele>497.62</ele>
        <time>2013-08-07T15:53:51Z</time>
      </trkpt>
      <trkpt lat="43.01326" lon="-0.08198">
        <ele>499.54</ele>
        <time>2013-08-07T15:53:57Z</time>
      </trkpt>
      <trkpt lat="43.01322" lon="-0.08195">
        <ele>500.02</ele>
        <time>2013-08-07T15:54:00Z</time>
      </trkpt>
      <trkpt lat="43.01319" lon="-0.08193">
        <ele>500.5</ele>
        <time>2013-08-07T15:54:02Z</time>
      </trkpt>
      <trkpt lat="43.01317" lon="-0.08189">
        <ele>501.46</ele>
        <time>2013-08-07T15:54:04Z</time>
      </trkpt>
      <trkpt lat="43.01315" lon="-0.08187">
        <ele>501.46</ele>
        <time>2013-08-07T15:54:06Z</time>
      </trkpt>
      <trkpt lat="43.01309" lon="-0.08175">
        <ele>504.35</ele>
        <time>2013-08-07T15:54:15Z</time>
      </trkpt>
      <trkpt lat="43.01307" lon="-0.08163">
        <ele>506.27</ele>
        <time>2013-08-07T15:54:21Z</time>
      </trkpt>
      <trkpt lat="43.01308" lon="-0.08151">
        <ele>508.19</ele>
        <time>2013-08-07T15:54:27Z</time>
      </trkpt>
      <trkpt lat="43.01305" lon="-0.08136">
        <ele>510.6</ele>
        <time>2013-08-07T15:54:38Z</time>
      </trkpt>
      <trkpt lat="43.01304" lon="-0.08129">
        <ele>510.6</ele>
        <time>2013-08-07T15:54:43Z</time>
      </trkpt>
      <trkpt lat="43.01301" lon="-0.08117">
        <ele>511.08</ele>
        <time>2013-08-07T15:54:49Z</time>
      </trkpt>
      <trkpt lat="43.01304" lon="-0.08084">
        <ele>513.48</ele>
        <time>2013-08-07T15:55:03Z</time>
      </trkpt>
      <trkpt lat="43.01304" lon="-0.08083">
        <ele>513.96</ele>
        <time>2013-08-07T15:55:04Z</time>
      </trkpt>
      <trkpt lat="43.01305" lon="-0.08074">
        <ele>514.92</ele>
        <time>2013-08-07T15:55:09Z</time>
      </trkpt>
      <trkpt lat="43.0131" lon="-0.0806">
        <ele>517.81</ele>
        <time>2013-08-07T15:55:18Z</time>
      </trkpt>
      <trkpt lat="43.01311" lon="-0.08037">
        <ele>519.25</ele>
        <time>2013-08-07T15:55:30Z</time>
      </trkpt>
      <trkpt lat="43.0131" lon="-0.08026">
        <ele>519.25</ele>
        <time>2013-08-07T15:55:34Z</time>
      </trkpt>
      <trkpt lat="43.01318" lon="-0.07987">
        <ele>517.81</ele>
        <time>2013-08-07T15:55:43Z</time>
      </trkpt>
      <trkpt lat="43.01322" lon="-0.07976">
        <ele>516.37</ele>
        <time>2013-08-07T15:55:45Z</time>
      </trkpt>
      <trkpt lat="43.01326" lon="-0.07952">
        <ele>514.44</ele>
        <time>2013-08-07T15:55:49Z</time>
      </trkpt>
      <trkpt lat="43.01319" lon="-0.07937">
        <ele>514.44</ele>
        <time>2013-08-07T15:55:52Z</time>
      </trkpt>
      <trkpt lat="43.01324" lon="-0.07903">
        <ele>510.6</ele>
        <time>2013-08-07T15:55:58Z</time>
      </trkpt>
      <trkpt lat="43.01336" lon="-0.07894">
        <ele>507.71</ele>
        <time>2013-08-07T15:56:01Z</time>
      </trkpt>
      <trkpt lat="43.01345" lon="-0.07893">
        <ele>505.31</ele>
        <time>2013-08-07T15:56:03Z</time>
      </trkpt>
      <trkpt lat="43.01362" lon="-0.07878">
        <ele>500.98</ele>
        <time>2013-08-07T15:56:08Z</time>
      </trkpt>
      <trkpt lat="43.0136" lon="-0.0787">
        <ele>499.54</ele>
        <time>2013-08-07T15:56:10Z</time>
      </trkpt>
      <trkpt lat="43.0134" lon="-0.07859">
        <ele>499.06</ele>
        <time>2013-08-07T15:56:16Z</time>
      </trkpt>
      <trkpt lat="43.01316" lon="-0.07844">
        <ele>497.62</ele>
        <time>2013-08-07T15:56:21Z</time>
      </trkpt>
      <trkpt lat="43.01267" lon="-0.07822">
        <ele>494.74</ele>
        <time>2013-08-07T15:56:29Z</time>
      </trkpt>
      <trkpt lat="43.01254" lon="-0.07815">
        <ele>494.26</ele>
        <time>2013-08-07T15:56:31Z</time>
      </trkpt>
      <trkpt lat="43.01237" lon="-0.07787">
        <ele>491.85</ele>
        <time>2013-08-07T15:56:36Z</time>
      </trkpt>
      <trkpt lat="43.01194" lon="-0.07762">
        <ele>493.29</ele>
        <time>2013-08-07T15:56:49Z</time>
      </trkpt>
      <trkpt lat="43.01123" lon="-0.0775">
        <ele>493.29</ele>
        <time>2013-08-07T15:57:04Z</time>
      </trkpt>
      <trkpt lat="43.01074" lon="-0.07769">
        <ele>494.74</ele>
        <time>2013-08-07T15:57:15Z</time>
      </trkpt>
      <trkpt lat="43.01027" lon="-0.07767">
        <ele>491.37</ele>
        <time>2013-08-07T15:57:24Z</time>
      </trkpt>
      <trkpt lat="43.00995" lon="-0.07775">
        <ele>488.01</ele>
        <time>2013-08-07T15:57:30Z</time>
      </trkpt>
      <trkpt lat="43.00985" lon="-0.0778">
        <ele>487.53</ele>
        <time>2013-08-07T15:57:32Z</time>
      </trkpt>
      <trkpt lat="43.00957" lon="-0.07783">
        <ele>487.05</ele>
        <time>2013-08-07T15:57:37Z</time>
      </trkpt>
      <trkpt lat="43.00925" lon="-0.07773">
        <ele>485.12</ele>
        <time>2013-08-07T15:57:43Z</time>
      </trkpt>
      <trkpt lat="43.00901" lon="-0.07776">
        <ele>484.64</ele>
        <time>2013-08-07T15:57:48Z</time>
      </trkpt>
      <trkpt lat="43.00853" lon="-0.07809">
        <ele>484.16</ele>
        <time>2013-08-07T15:57:58Z</time>
      </trkpt>
      <trkpt lat="43.00819" lon="-0.07842">
        <ele>482.72</ele>
        <time>2013-08-07T15:58:06Z</time>
      </trkpt>
      <trkpt lat="43.00814" lon="-0.07838">
        <ele>482.72</ele>
        <time>2013-08-07T15:58:11Z</time>
      </trkpt>
      <trkpt lat="43.00813" lon="-0.07835">
        <ele>483.2</ele>
        <time>2013-08-07T15:58:13Z</time>
      </trkpt>
      <trkpt lat="43.00808" lon="-0.07826">
        <ele>484.64</ele>
        <time>2013-08-07T15:58:17Z</time>
      </trkpt>
      <trkpt lat="43.00801" lon="-0.07814">
        <ele>485.6</ele>
        <time>2013-08-07T15:58:22Z</time>
      </trkpt>
      <trkpt lat="43.00782" lon="-0.0779">
        <ele>488.49</ele>
        <time>2013-08-07T15:58:34Z</time>
      </trkpt>
      <trkpt lat="43.00755" lon="-0.0776">
        <ele>491.37</ele>
        <time>2013-08-07T15:58:46Z</time>
      </trkpt>
      <trkpt lat="43.00727" lon="-0.07733">
        <ele>491.37</ele>
        <time>2013-08-07T15:58:57Z</time>
      </trkpt>
      <trkpt lat="43.00711" lon="-0.07696">
        <ele>490.89</ele>
        <time>2013-08-07T15:59:08Z</time>
      </trkpt>
      <trkpt lat="43.00702" lon="-0.07657">
        <ele>490.41</ele>
        <time>2013-08-07T15:59:18Z</time>
      </trkpt>
      <trkpt lat="43.00696" lon="-0.07625">
        <ele>488.97</ele>
        <time>2013-08-07T15:59:24Z</time>
      </trkpt>
      <trkpt lat="43.0069" lon="-0.07606">
        <ele>487.53</ele>
        <time>2013-08-07T15:59:27Z</time>
      </trkpt>
      <trkpt lat="43.00681" lon="-0.07588">
        <ele>486.56</ele>
        <time>2013-08-07T15:59:30Z</time>
      </trkpt>
      <trkpt lat="43.00678" lon="-0.07574">
        <ele>486.56</ele>
        <time>2013-08-07T15:59:32Z</time>
      </trkpt>
      <trkpt lat="43.00679" lon="-0.07538">
        <ele>485.12</ele>
        <time>2013-08-07T15:59:36Z</time>
      </trkpt>
      <trkpt lat="43.0065" lon="-0.07489">
        <ele>482.24</ele>
        <time>2013-08-07T15:59:45Z</time>
      </trkpt>
      <trkpt lat="43.00647" lon="-0.07476">
        <ele>482.24</ele>
        <time>2013-08-07T15:59:47Z</time>
      </trkpt>
      <trkpt lat="43.00634" lon="-0.07393">
        <ele>478.87</ele>
        <time>2013-08-07T15:59:58Z</time>
      </trkpt>
      <trkpt lat="43.00632" lon="-0.07384">
        <ele>478.87</ele>
        <time>2013-08-07T15:59:59Z</time>
      </trkpt>
      <trkpt lat="43.0062" lon="-0.07356">
        <ele>477.91</ele>
        <time>2013-08-07T16:00:03Z</time>
      </trkpt>
      <trkpt lat="43.00603" lon="-0.07333">
        <ele>476.47</ele>
        <time>2013-08-07T16:00:09Z</time>
      </trkpt>
      <trkpt lat="43.00591" lon="-0.07323">
        <ele>476.47</ele>
        <time>2013-08-07T16:00:12Z</time>
      </trkpt>
      <trkpt lat="43.00577" lon="-0.07287">
        <ele>472.63</ele>
        <time>2013-08-07T16:00:17Z</time>
      </trkpt>
      <trkpt lat="43.00568" lon="-0.07262">
        <ele>470.7</ele>
        <time>2013-08-07T16:00:20Z</time>
      </trkpt>
      <trkpt lat="43.0056" lon="-0.0724">
        <ele>470.22</ele>
        <time>2013-08-07T16:00:23Z</time>
      </trkpt>
      <trkpt lat="43.00556" lon="-0.07226">
        <ele>470.22</ele>
        <time>2013-08-07T16:00:25Z</time>
      </trkpt>
      <trkpt lat="43.00525" lon="-0.0722">
        <ele>468.78</ele>
        <time>2013-08-07T16:00:32Z</time>
      </trkpt>
      <trkpt lat="43.00514" lon="-0.0723">
        <ele>467.82</ele>
        <time>2013-08-07T16:00:34Z</time>
      </trkpt>
      <trkpt lat="43.00494" lon="-0.07247">
        <ele>466.38</ele>
        <time>2013-08-07T16:00:38Z</time>
      </trkpt>
      <trkpt lat="43.00489" lon="-0.07251">
        <ele>465.9</ele>
        <time>2013-08-07T16:00:39Z</time>
      </trkpt>
      <trkpt lat="43.00478" lon="-0.07263">
        <ele>464.45</ele>
        <time>2013-08-07T16:00:43Z</time>
      </trkpt>
      <trkpt lat="43.00466" lon="-0.07271">
        <ele>463.01</ele>
        <time>2013-08-07T16:00:46Z</time>
      </trkpt>
      <trkpt lat="43.00461" lon="-0.07274">
        <ele>461.09</ele>
        <time>2013-08-07T16:00:51Z</time>
      </trkpt>
      <trkpt lat="43.00459" lon="-0.07275">
        <ele>461.09</ele>
        <time>2013-08-07T16:00:53Z</time>
      </trkpt>
      <trkpt lat="43.0041" lon="-0.07298">
        <ele>457.72</ele>
        <time>2013-08-07T16:01:06Z</time>
      </trkpt>
      <trkpt lat="43.00383" lon="-0.07321">
        <ele>456.76</ele>
        <time>2013-08-07T16:01:14Z</time>
      </trkpt>
      <trkpt lat="43.00347" lon="-0.07355">
        <ele>454.84</ele>
        <time>2013-08-07T16:01:25Z</time>
      </trkpt>
      <trkpt lat="43.00338" lon="-0.07371">
        <ele>452.92</ele>
        <time>2013-08-07T16:01:28Z</time>
      </trkpt>
      <trkpt lat="43.00335" lon="-0.07376">
        <ele>452.92</ele>
        <time>2013-08-07T16:01:29Z</time>
      </trkpt>
      <trkpt lat="43.00324" lon="-0.07432">
        <ele>450.03</ele>
        <time>2013-08-07T16:01:38Z</time>
      </trkpt>
      <trkpt lat="43.00319" lon="-0.07435">
        <ele>449.55</ele>
        <time>2013-08-07T16:01:40Z</time>
      </trkpt>
      <trkpt lat="43.00299" lon="-0.07443">
        <ele>445.23</ele>
        <time>2013-08-07T16:01:47Z</time>
      </trkpt>
      <trkpt lat="43.00269" lon="-0.07477">
        <ele>443.79</ele>
        <time>2013-08-07T16:01:54Z</time>
      </trkpt>
      <trkpt lat="43.00255" lon="-0.07505">
        <ele>441.86</ele>
        <time>2013-08-07T16:01:58Z</time>
      </trkpt>
      <trkpt lat="43.00249" lon="-0.0752">
        <ele>441.86</ele>
        <time>2013-08-07T16:02:00Z</time>
      </trkpt>
      <trkpt lat="43.00216" lon="-0.07569">
        <ele>440.9</ele>
        <time>2013-08-07T16:02:10Z</time>
      </trkpt>
      <trkpt lat="43.00198" lon="-0.07583">
        <ele>440.9</ele>
        <time>2013-08-07T16:02:15Z</time>
      </trkpt>
      <trkpt lat="43.00185" lon="-0.07599">
        <ele>438.5</ele>
        <time>2013-08-07T16:02:18Z</time>
      </trkpt>
      <trkpt lat="43.00175" lon="-0.07619">
        <ele>437.06</ele>
        <time>2013-08-07T16:02:21Z</time>
      </trkpt>
      <trkpt lat="43.00161" lon="-0.07642">
        <ele>434.65</ele>
        <time>2013-08-07T16:02:26Z</time>
      </trkpt>
      <trkpt lat="43.00157" lon="-0.07643">
        <ele>434.65</ele>
        <time>2013-08-07T16:02:27Z</time>
      </trkpt>
      <trkpt lat="43.00129" lon="-0.07654">
        <ele>433.69</ele>
        <time>2013-08-07T16:02:34Z</time>
      </trkpt>
      <trkpt lat="43.001" lon="-0.07679">
        <ele>432.25</ele>
        <time>2013-08-07T16:02:45Z</time>
      </trkpt>
      <trkpt lat="43.00069" lon="-0.07705">
        <ele>432.25</ele>
        <time>2013-08-07T16:02:56Z</time>
      </trkpt>
      <trkpt lat="43.00027" lon="-0.07728">
        <ele>432.25</ele>
        <time>2013-08-07T16:03:08Z</time>
      </trkpt>
      <trkpt lat="43.00019" lon="-0.07729">
        <ele>432.25</ele>
        <time>2013-08-07T16:03:10Z</time>
      </trkpt>
      <trkpt lat="42.99971" lon="-0.0772">
        <ele>432.25</ele>
        <time>2013-08-07T16:03:23Z</time>
      </trkpt>
      <trkpt lat="42.99953" lon="-0.07715">
        <ele>432.25</ele>
        <time>2013-08-07T16:03:28Z</time>
      </trkpt>
      <trkpt lat="42.99933" lon="-0.07719">
        <ele>432.73</ele>
        <time>2013-08-07T16:03:33Z</time>
      </trkpt>
      <trkpt lat="42.99911" lon="-0.07732">
        <ele>432.73</ele>
        <time>2013-08-07T16:03:38Z</time>
      </trkpt>
      <trkpt lat="42.99902" lon="-0.0774">
        <ele>432.73</ele>
        <time>2013-08-07T16:03:40Z</time>
      </trkpt>
      <trkpt lat="42.99879" lon="-0.0774">
        <ele>433.21</ele>
        <time>2013-08-07T16:03:45Z</time>
      </trkpt>
      <trkpt lat="42.99844" lon="-0.07736">
        <ele>433.21</ele>
        <time>2013-08-07T16:03:52Z</time>
      </trkpt>
      <trkpt lat="42.9975" lon="-0.0774">
        <ele>433.69</ele>
        <time>2013-08-07T16:04:10Z</time>
      </trkpt>
      <trkpt lat="42.99675" lon="-0.07744">
        <ele>434.65</ele>
        <time>2013-08-07T16:04:25Z</time>
      </trkpt>
      <trkpt lat="42.99639" lon="-0.07745">
        <ele>434.65</ele>
        <time>2013-08-07T16:04:32Z</time>
      </trkpt>
      <trkpt lat="42.99621" lon="-0.07735">
        <ele>434.65</ele>
        <time>2013-08-07T16:04:36Z</time>
      </trkpt>
      <trkpt lat="42.99543" lon="-0.0769">
        <ele>436.1</ele>
        <time>2013-08-07T16:04:51Z</time>
      </trkpt>
      <trkpt lat="42.99527" lon="-0.07682">
        <ele>435.61</ele>
        <time>2013-08-07T16:04:54Z</time>
      </trkpt>
      <trkpt lat="42.99516" lon="-0.07678">
        <ele>435.61</ele>
        <time>2013-08-07T16:04:56Z</time>
      </trkpt>
      <trkpt lat="42.99462" lon="-0.07654">
        <ele>436.58</ele>
        <time>2013-08-07T16:05:06Z</time>
      </trkpt>
      <trkpt lat="42.99392" lon="-0.07617">
        <ele>437.06</ele>
        <time>2013-08-07T16:05:20Z</time>
      </trkpt>
      <trkpt lat="42.99376" lon="-0.07642">
        <ele>437.06</ele>
        <time>2013-08-07T16:05:26Z</time>
      </trkpt>
      <trkpt lat="42.99378" lon="-0.07662">
        <ele>435.61</ele>
        <time>2013-08-07T16:05:34Z</time>
      </trkpt>
      <trkpt lat="42.99365" lon="-0.07674">
        <ele>436.58</ele>
        <time>2013-08-07T16:05:39Z</time>
      </trkpt>
      <trkpt lat="42.99336" lon="-0.07676">
        <ele>436.1</ele>
        <time>2013-08-07T16:05:45Z</time>
      </trkpt>
      <trkpt lat="42.99319" lon="-0.07669">
        <ele>436.58</ele>
        <time>2013-08-07T16:05:48Z</time>
      </trkpt>
      <trkpt lat="42.99303" lon="-0.07662">
        <ele>436.58</ele>
        <time>2013-08-07T16:05:51Z</time>
      </trkpt>
      <trkpt lat="42.99277" lon="-0.07646">
        <ele>436.58</ele>
        <time>2013-08-07T16:05:56Z</time>
      </trkpt>
      <trkpt lat="42.99184" lon="-0.07588">
        <ele>436.1</ele>
        <time>2013-08-07T16:06:13Z</time>
      </trkpt>
      <trkpt lat="42.99114" lon="-0.07526">
        <ele>436.1</ele>
        <time>2013-08-07T16:06:26Z</time>
      </trkpt>
      <trkpt lat="42.9905" lon="-0.07471">
        <ele>436.1</ele>
        <time>2013-08-07T16:06:39Z</time>
      </trkpt>
      <trkpt lat="42.98977" lon="-0.074">
        <ele>436.58</ele>
        <time>2013-08-07T16:06:54Z</time>
      </trkpt>
      <trkpt lat="42.98973" lon="-0.07396">
        <ele>436.58</ele>
        <time>2013-08-07T16:06:55Z</time>
      </trkpt>
      <trkpt lat="42.98955" lon="-0.07387">
        <ele>437.54</ele>
        <time>2013-08-07T16:06:59Z</time>
      </trkpt>
      <trkpt lat="42.98946" lon="-0.07385">
        <ele>437.54</ele>
        <time>2013-08-07T16:07:01Z</time>
      </trkpt>
      <trkpt lat="42.98895" lon="-0.07352">
        <ele>438.5</ele>
        <time>2013-08-07T16:07:12Z</time>
      </trkpt>
      <trkpt lat="42.98864" lon="-0.07336">
        <ele>438.5</ele>
        <time>2013-08-07T16:07:18Z</time>
      </trkpt>
      <trkpt lat="42.9879" lon="-0.07311">
        <ele>439.94</ele>
        <time>2013-08-07T16:07:33Z</time>
      </trkpt>
      <trkpt lat="42.98763" lon="-0.07299">
        <ele>439.94</ele>
        <time>2013-08-07T16:07:38Z</time>
      </trkpt>
      <trkpt lat="42.9871" lon="-0.07286">
        <ele>440.42</ele>
        <time>2013-08-07T16:07:48Z</time>
      </trkpt>
      <trkpt lat="42.98692" lon="-0.07278">
        <ele>440.42</ele>
        <time>2013-08-07T16:07:52Z</time>
      </trkpt>
      <trkpt lat="42.98611" lon="-0.07253">
        <ele>440.9</ele>
        <time>2013-08-07T16:08:08Z</time>
      </trkpt>
      <trkpt lat="42.98532" lon="-0.07234">
        <ele>441.86</ele>
        <time>2013-08-07T16:08:22Z</time>
      </trkpt>
      <trkpt lat="42.98508" lon="-0.0723">
        <ele>441.86</ele>
        <time>2013-08-07T16:08:26Z</time>
      </trkpt>
      <trkpt lat="42.9848" lon="-0.0723">
        <ele>442.34</ele>
        <time>2013-08-07T16:08:31Z</time>
      </trkpt>
      <trkpt lat="42.98441" lon="-0.07217">
        <ele>442.82</ele>
        <time>2013-08-07T16:08:40Z</time>
      </trkpt>
      <trkpt lat="42.98417" lon="-0.07188">
        <ele>442.82</ele>
        <time>2013-08-07T16:08:47Z</time>
      </trkpt>
      <trkpt lat="42.98411" lon="-0.07168">
        <ele>442.82</ele>
        <time>2013-08-07T16:08:51Z</time>
      </trkpt>
      <trkpt lat="42.98399" lon="-0.07158">
        <ele>443.31</ele>
        <time>2013-08-07T16:08:55Z</time>
      </trkpt>
      <trkpt lat="42.98363" lon="-0.07141">
        <ele>443.31</ele>
        <time>2013-08-07T16:09:09Z</time>
      </trkpt>
      <trkpt lat="42.9836" lon="-0.07139">
        <ele>443.31</ele>
        <time>2013-08-07T16:09:12Z</time>
      </trkpt>
      <trkpt lat="42.98324" lon="-0.07122">
        <ele>443.79</ele>
        <time>2013-08-07T16:09:23Z</time>
      </trkpt>
      <trkpt lat="42.98236" lon="-0.07081">
        <ele>444.75</ele>
        <time>2013-08-07T16:09:39Z</time>
      </trkpt>
      <trkpt lat="42.9814" lon="-0.07039">
        <ele>446.19</ele>
        <time>2013-08-07T16:09:55Z</time>
      </trkpt>
      <trkpt lat="42.98023" lon="-0.0699">
        <ele>448.11</ele>
        <time>2013-08-07T16:10:13Z</time>
      </trkpt>
      <trkpt lat="42.9792" lon="-0.06945">
        <ele>448.11</ele>
        <time>2013-08-07T16:10:29Z</time>
      </trkpt>
      <trkpt lat="42.9781" lon="-0.06895">
        <ele>450.03</ele>
        <time>2013-08-07T16:10:46Z</time>
      </trkpt>
      <trkpt lat="42.97695" lon="-0.06845">
        <ele>451.48</ele>
        <time>2013-08-07T16:11:04Z</time>
      </trkpt>
      <trkpt lat="42.97589" lon="-0.06793">
        <ele>452.44</ele>
        <time>2013-08-07T16:11:21Z</time>
      </trkpt>
      <trkpt lat="42.97487" lon="-0.06705">
        <ele>453.4</ele>
        <time>2013-08-07T16:11:39Z</time>
      </trkpt>
      <trkpt lat="42.97404" lon="-0.06596">
        <ele>453.88</ele>
        <time>2013-08-07T16:11:56Z</time>
      </trkpt>
      <trkpt lat="42.97328" lon="-0.06508">
        <ele>455.32</ele>
        <time>2013-08-07T16:12:11Z</time>
      </trkpt>
      <trkpt lat="42.97203" lon="-0.06412">
        <ele>455.8</ele>
        <time>2013-08-07T16:12:32Z</time>
      </trkpt>
      <trkpt lat="42.97113" lon="-0.06347">
        <ele>456.76</ele>
        <time>2013-08-07T16:12:47Z</time>
      </trkpt>
      <trkpt lat="42.9703" lon="-0.06286">
        <ele>457.72</ele>
        <time>2013-08-07T16:13:01Z</time>
      </trkpt>
      <trkpt lat="42.9693" lon="-0.06222">
        <ele>458.21</ele>
        <time>2013-08-07T16:13:17Z</time>
      </trkpt>
      <trkpt lat="42.96824" lon="-0.06185">
        <ele>459.65</ele>
        <time>2013-08-07T16:13:33Z</time>
      </trkpt>
      <trkpt lat="42.96723" lon="-0.06146">
        <ele>460.13</ele>
        <time>2013-08-07T16:13:48Z</time>
      </trkpt>
      <trkpt lat="42.96618" lon="-0.06079">
        <ele>460.13</ele>
        <time>2013-08-07T16:14:04Z</time>
      </trkpt>
      <trkpt lat="42.96583" lon="-0.06064">
        <ele>461.09</ele>
        <time>2013-08-07T16:14:09Z</time>
      </trkpt>
      <trkpt lat="42.96561" lon="-0.06062">
        <ele>461.57</ele>
        <time>2013-08-07T16:14:12Z</time>
      </trkpt>
      <trkpt lat="42.96502" lon="-0.06082">
        <ele>462.53</ele>
        <time>2013-08-07T16:14:21Z</time>
      </trkpt>
      <trkpt lat="42.96412" lon="-0.06154">
        <ele>463.49</ele>
        <time>2013-08-07T16:14:38Z</time>
      </trkpt>
      <trkpt lat="42.96323" lon="-0.06232">
        <ele>463.97</ele>
        <time>2013-08-07T16:14:56Z</time>
      </trkpt>
      <trkpt lat="42.96234" lon="-0.0628">
        <ele>465.9</ele>
        <time>2013-08-07T16:15:12Z</time>
      </trkpt>
      <trkpt lat="42.96164" lon="-0.06295">
        <ele>465.9</ele>
        <time>2013-08-07T16:15:25Z</time>
      </trkpt>
      <trkpt lat="42.96138" lon="-0.06291">
        <ele>465.9</ele>
        <time>2013-08-07T16:15:30Z</time>
      </trkpt>
      <trkpt lat="42.96109" lon="-0.06279">
        <ele>465.9</ele>
        <time>2013-08-07T16:15:36Z</time>
      </trkpt>
      <trkpt lat="42.96016" lon="-0.06284">
        <ele>466.86</ele>
        <time>2013-08-07T16:15:53Z</time>
      </trkpt>
      <trkpt lat="42.96011" lon="-0.06284">
        <ele>466.86</ele>
        <time>2013-08-07T16:15:54Z</time>
      </trkpt>
      <trkpt lat="42.95928" lon="-0.06318">
        <ele>468.3</ele>
        <time>2013-08-07T16:16:10Z</time>
      </trkpt>
      <trkpt lat="42.95918" lon="-0.06323">
        <ele>467.82</ele>
        <time>2013-08-07T16:16:12Z</time>
      </trkpt>
      <trkpt lat="42.95894" lon="-0.06354">
        <ele>469.74</ele>
        <time>2013-08-07T16:16:20Z</time>
      </trkpt>
      <trkpt lat="42.95848" lon="-0.06385">
        <ele>469.74</ele>
        <time>2013-08-07T16:16:32Z</time>
      </trkpt>
      <trkpt lat="42.9585" lon="-0.06372">
        <ele>468.78</ele>
        <time>2013-08-07T16:16:39Z</time>
      </trkpt>
      <trkpt lat="42.95861" lon="-0.06367">
        <ele>469.74</ele>
        <time>2013-08-07T16:16:42Z</time>
      </trkpt>
      <trkpt lat="42.95872" lon="-0.06356">
        <ele>468.3</ele>
        <time>2013-08-07T16:16:51Z</time>
      </trkpt>
      <trkpt lat="42.95871" lon="-0.06353">
        <ele>469.26</ele>
        <time>2013-08-07T16:17:02Z</time>
      </trkpt>
      <trkpt lat="42.95871" lon="-0.06352">
        <ele>468.78</ele>
        <time>2013-08-07T16:17:22Z</time>
      </trkpt>
      <trkpt lat="42.95864" lon="-0.06352">
        <ele>469.26</ele>
        <time>2013-08-07T16:17:34Z</time>
      </trkpt>
      <trkpt lat="42.95864" lon="-0.06353">
        <ele>468.78</ele>
        <time>2013-08-07T16:17:49Z</time>
      </trkpt>
      <trkpt lat="42.95864" lon="-0.06358">
        <ele>468.3</ele>
        <time>2013-08-07T16:18:12Z</time>
      </trkpt>
      <trkpt lat="42.95861" lon="-0.06368">
        <ele>468.3</ele>
        <time>2013-08-07T16:18:50Z</time>
      </trkpt>
      <trkpt lat="42.95887" lon="-0.06351">
        <ele>467.34</ele>
        <time>2013-08-07T16:19:33Z</time>
      </trkpt>
      <trkpt lat="42.95874" lon="-0.06349">
        <ele>466.86</ele>
        <time>2013-08-07T16:19:59Z</time>
      </trkpt>
      <trkpt lat="42.95877" lon="-0.06352">
        <ele>467.34</ele>
        <time>2013-08-07T16:20:29Z</time>
      </trkpt>
      <trkpt lat="42.95878" lon="-0.06358">
        <ele>466.86</ele>
        <time>2013-08-07T16:20:48Z</time>
      </trkpt>
      <trkpt lat="42.95875" lon="-0.06357">
        <ele>467.34</ele>
        <time>2013-08-07T16:20:50Z</time>
      </trkpt>
      <trkpt lat="42.95861" lon="-0.06347">
        <ele>466.86</ele>
        <time>2013-08-07T16:21:10Z</time>
      </trkpt>
      <trkpt lat="42.95869" lon="-0.06354">
        <ele>466.38</ele>
        <time>2013-08-07T16:21:37Z</time>
      </trkpt>
      <trkpt lat="42.9588" lon="-0.0635">
        <ele>466.38</ele>
        <time>2013-08-07T16:21:59Z</time>
      </trkpt>
      <trkpt lat="42.95876" lon="-0.06352">
        <ele>466.38</ele>
        <time>2013-08-07T16:22:25Z</time>
      </trkpt>
      <trkpt lat="42.95875" lon="-0.06354">
        <ele>465.42</ele>
        <time>2013-08-07T16:22:50Z</time>
      </trkpt>
      <trkpt lat="42.95879" lon="-0.06352">
        <ele>465.42</ele>
        <time>2013-08-07T16:23:15Z</time>
      </trkpt>
      <trkpt lat="42.95876" lon="-0.06351">
        <ele>464.93</ele>
        <time>2013-08-07T16:23:38Z</time>
      </trkpt>
      <trkpt lat="42.95874" lon="-0.06351">
        <ele>465.42</ele>
        <time>2013-08-07T16:23:59Z</time>
      </trkpt>
      <trkpt lat="42.95857" lon="-0.0635">
        <ele>464.93</ele>
        <time>2013-08-07T16:24:26Z</time>
      </trkpt>
      <trkpt lat="42.9585" lon="-0.06352">
        <ele>464.45</ele>
        <time>2013-08-07T16:24:49Z</time>
      </trkpt>
      <trkpt lat="42.95858" lon="-0.06349">
        <ele>464.93</ele>
        <time>2013-08-07T16:25:18Z</time>
      </trkpt>
      <trkpt lat="42.95862" lon="-0.06348">
        <ele>464.45</ele>
        <time>2013-08-07T16:25:45Z</time>
      </trkpt>
      <trkpt lat="42.95866" lon="-0.06346">
        <ele>463.97</ele>
        <time>2013-08-07T16:26:11Z</time>
      </trkpt>
      <trkpt lat="42.95868" lon="-0.06345">
        <ele>463.49</ele>
        <time>2013-08-07T16:26:37Z</time>
      </trkpt>
      <trkpt lat="42.95871" lon="-0.06346">
        <ele>463.01</ele>
        <time>2013-08-07T16:27:03Z</time>
      </trkpt>
      <trkpt lat="42.95871" lon="-0.06347">
        <ele>462.53</ele>
        <time>2013-08-07T16:27:26Z</time>
      </trkpt>
      <trkpt lat="42.9587" lon="-0.06347">
        <ele>462.05</ele>
        <time>2013-08-07T16:27:51Z</time>
      </trkpt>
      <trkpt lat="42.95877" lon="-0.06346">
        <ele>462.05</ele>
        <time>2013-08-07T16:28:17Z</time>
      </trkpt>
      <trkpt lat="42.95877" lon="-0.06347">
        <ele>461.09</ele>
        <time>2013-08-07T16:28:37Z</time>
      </trkpt>
      <trkpt lat="42.95875" lon="-0.06347">
        <ele>461.09</ele>
        <time>2013-08-07T16:28:59Z</time>
      </trkpt>
      <trkpt lat="42.95874" lon="-0.06348">
        <ele>461.09</ele>
        <time>2013-08-07T16:29:24Z</time>
      </trkpt>
      <trkpt lat="42.95878" lon="-0.06353">
        <ele>460.13</ele>
        <time>2013-08-07T16:29:46Z</time>
      </trkpt>
      <trkpt lat="42.95878" lon="-0.06354">
        <ele>461.09</ele>
        <time>2013-08-07T16:30:10Z</time>
      </trkpt>
      <trkpt lat="42.95869" lon="-0.06356">
        <ele>460.61</ele>
        <time>2013-08-07T16:30:33Z</time>
      </trkpt>
      <trkpt lat="42.95865" lon="-0.06349">
        <ele>460.13</ele>
        <time>2013-08-07T16:30:58Z</time>
      </trkpt>
      <trkpt lat="42.95866" lon="-0.06345">
        <ele>461.57</ele>
        <time>2013-08-07T16:31:18Z</time>
      </trkpt>
      <trkpt lat="42.95869" lon="-0.06346">
        <ele>461.09</ele>
        <time>2013-08-07T16:31:19Z</time>
      </trkpt>
      <trkpt lat="42.95871" lon="-0.06347">
        <ele>461.09</ele>
        <time>2013-08-07T16:31:33Z</time>
      </trkpt>
      <trkpt lat="42.95874" lon="-0.06346">
        <ele>461.09</ele>
        <time>2013-08-07T16:31:40Z</time>
      </trkpt>
      <trkpt lat="42.95876" lon="-0.06348">
        <ele>458.21</ele>
        <time>2013-08-07T16:31:42Z</time>
      </trkpt>
      <trkpt lat="42.959" lon="-0.06396">
        <ele>453.88</ele>
        <time>2013-08-07T16:32:06Z</time>
      </trkpt>
      <trkpt lat="42.95901" lon="-0.06398">
        <ele>461.57</ele>
        <time>2013-08-07T16:32:07Z</time>
      </trkpt>
    </trkseg>
  </trk>
</gpx>